<?xml version="1.0" encoding="UTF-8" standalone="no" ?>
<gpx xmlns="http://www.topografix.com/GPX/1/1" xmlns:xsi="http://www.w3.org/2001/XMLSchema-instance" xsi:schemaLocation="http://www.topografix.com/GPX/1/1 http://www.topografix.com/GPX/1/1/gpx.xsd" version="1.1" creator="VisuGPX - https://www.visugpx.com">
  <metadata>
    <name>Dimanche 14 Novembre 2010</name>
    <desc><![CDATA[Dimanche 14 Novembre 2010]]></desc>
  </metadata>
  <trk>
    <name><![CDATA[14/11/2010]]></name>
    <trkseg>
      <trkpt lat="47.17111" lon="-1.62224">
        <ele>15.5184326</ele>
        <time>2010-11-14T07:11:35Z</time>
      </trkpt>
      <trkpt lat="47.17068" lon="-1.6225">
        <ele>15.5184326</ele>
        <time>2010-11-14T07:11:47Z</time>
      </trkpt>
      <trkpt lat="47.17022" lon="-1.62271">
        <ele>17.4411621</ele>
        <time>2010-11-14T07:11:59Z</time>
      </trkpt>
      <trkpt lat="47.16981" lon="-1.62295">
        <ele>16.9604492</ele>
        <time>2010-11-14T07:12:10Z</time>
      </trkpt>
      <trkpt lat="47.1694" lon="-1.62325">
        <ele>21.286377</ele>
        <time>2010-11-14T07:12:27Z</time>
      </trkpt>
      <trkpt lat="47.16899" lon="-1.62356">
        <ele>23.2089844</ele>
        <time>2010-11-14T07:12:39Z</time>
      </trkpt>
      <trkpt lat="47.16856" lon="-1.62377">
        <ele>25.1317139</ele>
        <time>2010-11-14T07:12:54Z</time>
      </trkpt>
      <trkpt lat="47.1682" lon="-1.62424">
        <ele>23.6895752</ele>
        <time>2010-11-14T07:13:04Z</time>
      </trkpt>
      <trkpt lat="47.16785" lon="-1.62452">
        <ele>21.286377</ele>
        <time>2010-11-14T07:13:21Z</time>
      </trkpt>
      <trkpt lat="47.16741" lon="-1.62431">
        <ele>19.3637695</ele>
        <time>2010-11-14T07:13:33Z</time>
      </trkpt>
      <trkpt lat="47.16708" lon="-1.62386">
        <ele>18.8830566</ele>
        <time>2010-11-14T07:13:45Z</time>
      </trkpt>
      <trkpt lat="47.16666" lon="-1.6236">
        <ele>19.3637695</ele>
        <time>2010-11-14T07:13:55Z</time>
      </trkpt>
      <trkpt lat="47.16626" lon="-1.62392">
        <ele>20.3249512</ele>
        <time>2010-11-14T07:14:05Z</time>
      </trkpt>
      <trkpt lat="47.16597" lon="-1.62446">
        <ele>21.7669678</ele>
        <time>2010-11-14T07:14:15Z</time>
      </trkpt>
      <trkpt lat="47.16573" lon="-1.62504">
        <ele>23.2089844</ele>
        <time>2010-11-14T07:14:25Z</time>
      </trkpt>
      <trkpt lat="47.1654" lon="-1.62557">
        <ele>24.651001</ele>
        <time>2010-11-14T07:14:36Z</time>
      </trkpt>
      <trkpt lat="47.16497" lon="-1.62558">
        <ele>25.6123047</ele>
        <time>2010-11-14T07:14:46Z</time>
      </trkpt>
      <trkpt lat="47.16449" lon="-1.62543">
        <ele>25.1317139</ele>
        <time>2010-11-14T07:14:57Z</time>
      </trkpt>
      <trkpt lat="47.16409" lon="-1.62565">
        <ele>25.1317139</ele>
        <time>2010-11-14T07:15:06Z</time>
      </trkpt>
      <trkpt lat="47.16364" lon="-1.62583">
        <ele>24.1702881</ele>
        <time>2010-11-14T07:15:15Z</time>
      </trkpt>
      <trkpt lat="47.16321" lon="-1.62582">
        <ele>23.2089844</ele>
        <time>2010-11-14T07:15:25Z</time>
      </trkpt>
      <trkpt lat="47.16318" lon="-1.62644">
        <ele>22.7282715</ele>
        <time>2010-11-14T07:15:36Z</time>
      </trkpt>
      <trkpt lat="47.16337" lon="-1.62705">
        <ele>24.1702881</ele>
        <time>2010-11-14T07:15:47Z</time>
      </trkpt>
      <trkpt lat="47.16307" lon="-1.62752">
        <ele>24.651001</ele>
        <time>2010-11-14T07:15:58Z</time>
      </trkpt>
      <trkpt lat="47.16288" lon="-1.62815">
        <ele>22.7282715</ele>
        <time>2010-11-14T07:16:06Z</time>
      </trkpt>
      <trkpt lat="47.16244" lon="-1.62853">
        <ele>19.3637695</ele>
        <time>2010-11-14T07:16:14Z</time>
      </trkpt>
      <trkpt lat="47.1621" lon="-1.62907">
        <ele>14.076416</ele>
        <time>2010-11-14T07:16:23Z</time>
      </trkpt>
      <trkpt lat="47.16186" lon="-1.62964">
        <ele>7.8278809</ele>
        <time>2010-11-14T07:16:32Z</time>
      </trkpt>
      <trkpt lat="47.16159" lon="-1.63025">
        <ele>3.5019531</ele>
        <time>2010-11-14T07:16:41Z</time>
      </trkpt>
      <trkpt lat="47.16151" lon="-1.63093">
        <ele>5.4245605</ele>
        <time>2010-11-14T07:16:53Z</time>
      </trkpt>
      <trkpt lat="47.16172" lon="-1.63156">
        <ele>8.3085938</ele>
        <time>2010-11-14T07:17:04Z</time>
      </trkpt>
      <trkpt lat="47.16191" lon="-1.63219">
        <ele>13.1151123</ele>
        <time>2010-11-14T07:17:14Z</time>
      </trkpt>
      <trkpt lat="47.16207" lon="-1.63286">
        <ele>16.4797363</ele>
        <time>2010-11-14T07:17:24Z</time>
      </trkpt>
      <trkpt lat="47.16226" lon="-1.63355">
        <ele>18.4023438</ele>
        <time>2010-11-14T07:17:34Z</time>
      </trkpt>
      <trkpt lat="47.16249" lon="-1.63419">
        <ele>18.8830566</ele>
        <time>2010-11-14T07:17:44Z</time>
      </trkpt>
      <trkpt lat="47.1628" lon="-1.63475">
        <ele>19.3637695</ele>
        <time>2010-11-14T07:17:54Z</time>
      </trkpt>
      <trkpt lat="47.16317" lon="-1.63524">
        <ele>21.286377</ele>
        <time>2010-11-14T07:18:04Z</time>
      </trkpt>
      <trkpt lat="47.16356" lon="-1.63568">
        <ele>22.2475586</ele>
        <time>2010-11-14T07:18:15Z</time>
      </trkpt>
      <trkpt lat="47.16404" lon="-1.63585">
        <ele>21.7669678</ele>
        <time>2010-11-14T07:18:25Z</time>
      </trkpt>
      <trkpt lat="47.16428" lon="-1.63651">
        <ele>20.8056641</ele>
        <time>2010-11-14T07:18:34Z</time>
      </trkpt>
      <trkpt lat="47.16453" lon="-1.63712">
        <ele>22.2475586</ele>
        <time>2010-11-14T07:18:43Z</time>
      </trkpt>
      <trkpt lat="47.16473" lon="-1.63779">
        <ele>26.0928955</ele>
        <time>2010-11-14T07:18:53Z</time>
      </trkpt>
      <trkpt lat="47.16495" lon="-1.63844">
        <ele>28.4962158</ele>
        <time>2010-11-14T07:19:03Z</time>
      </trkpt>
      <trkpt lat="47.16519" lon="-1.63903">
        <ele>28.9769287</ele>
        <time>2010-11-14T07:19:12Z</time>
      </trkpt>
      <trkpt lat="47.16541" lon="-1.63965">
        <ele>30.8995361</ele>
        <time>2010-11-14T07:19:21Z</time>
      </trkpt>
      <trkpt lat="47.16563" lon="-1.64026">
        <ele>30.4188232</ele>
        <time>2010-11-14T07:19:30Z</time>
      </trkpt>
      <trkpt lat="47.16542" lon="-1.6409">
        <ele>29.9381104</ele>
        <time>2010-11-14T07:19:39Z</time>
      </trkpt>
      <trkpt lat="47.16516" lon="-1.64145">
        <ele>28.4962158</ele>
        <time>2010-11-14T07:19:47Z</time>
      </trkpt>
      <trkpt lat="47.16491" lon="-1.64201">
        <ele>26.0928955</ele>
        <time>2010-11-14T07:19:55Z</time>
      </trkpt>
      <trkpt lat="47.16467" lon="-1.64258">
        <ele>25.6123047</ele>
        <time>2010-11-14T07:20:04Z</time>
      </trkpt>
      <trkpt lat="47.16506" lon="-1.64295">
        <ele>26.5736084</ele>
        <time>2010-11-14T07:20:15Z</time>
      </trkpt>
      <trkpt lat="47.16538" lon="-1.64245">
        <ele>26.5736084</ele>
        <time>2010-11-14T07:20:24Z</time>
      </trkpt>
      <trkpt lat="47.16572" lon="-1.64195">
        <ele>27.5349121</ele>
        <time>2010-11-14T07:20:33Z</time>
      </trkpt>
      <trkpt lat="47.16614" lon="-1.64177">
        <ele>27.5349121</ele>
        <time>2010-11-14T07:20:43Z</time>
      </trkpt>
      <trkpt lat="47.1664" lon="-1.64238">
        <ele>27.5349121</ele>
        <time>2010-11-14T07:20:53Z</time>
      </trkpt>
      <trkpt lat="47.16661" lon="-1.64303">
        <ele>30.4188232</ele>
        <time>2010-11-14T07:21:03Z</time>
      </trkpt>
      <trkpt lat="47.16682" lon="-1.64365">
        <ele>29.9381104</ele>
        <time>2010-11-14T07:21:12Z</time>
      </trkpt>
      <trkpt lat="47.16705" lon="-1.64429">
        <ele>27.5349121</ele>
        <time>2010-11-14T07:21:21Z</time>
      </trkpt>
      <trkpt lat="47.16725" lon="-1.64496">
        <ele>28.4962158</ele>
        <time>2010-11-14T07:21:31Z</time>
      </trkpt>
      <trkpt lat="47.16742" lon="-1.64561">
        <ele>28.9769287</ele>
        <time>2010-11-14T07:21:40Z</time>
      </trkpt>
      <trkpt lat="47.16761" lon="-1.64628">
        <ele>30.8995361</ele>
        <time>2010-11-14T07:21:50Z</time>
      </trkpt>
      <trkpt lat="47.16781" lon="-1.64696">
        <ele>29.9381104</ele>
        <time>2010-11-14T07:22:00Z</time>
      </trkpt>
      <trkpt lat="47.16798" lon="-1.64761">
        <ele>30.8995361</ele>
        <time>2010-11-14T07:22:09Z</time>
      </trkpt>
      <trkpt lat="47.16807" lon="-1.64826">
        <ele>31.380127</ele>
        <time>2010-11-14T07:22:18Z</time>
      </trkpt>
      <trkpt lat="47.16797" lon="-1.64897">
        <ele>23.6895752</ele>
        <time>2010-11-14T07:22:29Z</time>
      </trkpt>
      <trkpt lat="47.16797" lon="-1.6497">
        <ele>12.6343994</ele>
        <time>2010-11-14T07:22:40Z</time>
      </trkpt>
      <trkpt lat="47.16804" lon="-1.65042">
        <ele>9.2698975</ele>
        <time>2010-11-14T07:22:50Z</time>
      </trkpt>
      <trkpt lat="47.16812" lon="-1.65113">
        <ele>10.2312012</ele>
        <time>2010-11-14T07:22:59Z</time>
      </trkpt>
      <trkpt lat="47.1682" lon="-1.65191">
        <ele>12.1538086</ele>
        <time>2010-11-14T07:23:09Z</time>
      </trkpt>
      <trkpt lat="47.16829" lon="-1.65267">
        <ele>11.1925049</ele>
        <time>2010-11-14T07:23:19Z</time>
      </trkpt>
      <trkpt lat="47.16839" lon="-1.65346">
        <ele>12.6343994</ele>
        <time>2010-11-14T07:23:29Z</time>
      </trkpt>
      <trkpt lat="47.16845" lon="-1.65418">
        <ele>15.9990234</ele>
        <time>2010-11-14T07:23:39Z</time>
      </trkpt>
      <trkpt lat="47.16853" lon="-1.65489">
        <ele>19.3637695</ele>
        <time>2010-11-14T07:23:49Z</time>
      </trkpt>
      <trkpt lat="47.16862" lon="-1.65557">
        <ele>20.8056641</ele>
        <time>2010-11-14T07:23:58Z</time>
      </trkpt>
      <trkpt lat="47.16868" lon="-1.65631">
        <ele>20.3249512</ele>
        <time>2010-11-14T07:24:08Z</time>
      </trkpt>
      <trkpt lat="47.16875" lon="-1.65699">
        <ele>22.2475586</ele>
        <time>2010-11-14T07:24:18Z</time>
      </trkpt>
      <trkpt lat="47.16884" lon="-1.65773">
        <ele>22.2475586</ele>
        <time>2010-11-14T07:24:28Z</time>
      </trkpt>
      <trkpt lat="47.16893" lon="-1.6585">
        <ele>22.2475586</ele>
        <time>2010-11-14T07:24:39Z</time>
      </trkpt>
      <trkpt lat="47.16875" lon="-1.65924">
        <ele>21.7669678</ele>
        <time>2010-11-14T07:24:49Z</time>
      </trkpt>
      <trkpt lat="47.16897" lon="-1.6591">
        <ele>27.0543213</ele>
        <time>2010-11-14T07:25:03Z</time>
      </trkpt>
      <trkpt lat="47.16924" lon="-1.65853">
        <ele>28.4962158</ele>
        <time>2010-11-14T07:25:14Z</time>
      </trkpt>
      <trkpt lat="47.16951" lon="-1.65798">
        <ele>30.4188232</ele>
        <time>2010-11-14T07:25:24Z</time>
      </trkpt>
      <trkpt lat="47.16974" lon="-1.65738">
        <ele>31.8607178</ele>
        <time>2010-11-14T07:25:34Z</time>
      </trkpt>
      <trkpt lat="47.17007" lon="-1.65693">
        <ele>32.3415527</ele>
        <time>2010-11-14T07:25:43Z</time>
      </trkpt>
      <trkpt lat="47.17037" lon="-1.6564">
        <ele>34.2641602</ele>
        <time>2010-11-14T07:25:52Z</time>
      </trkpt>
      <trkpt lat="47.17069" lon="-1.65584">
        <ele>35.7060547</ele>
        <time>2010-11-14T07:26:02Z</time>
      </trkpt>
      <trkpt lat="47.17099" lon="-1.65529">
        <ele>35.7060547</ele>
        <time>2010-11-14T07:26:11Z</time>
      </trkpt>
      <trkpt lat="47.17115" lon="-1.65467">
        <ele>33.7834473</ele>
        <time>2010-11-14T07:26:18Z</time>
      </trkpt>
      <trkpt lat="47.17117" lon="-1.65399">
        <ele>30.8995361</ele>
        <time>2010-11-14T07:26:24Z</time>
      </trkpt>
      <trkpt lat="47.17111" lon="-1.65335">
        <ele>29.4575195</ele>
        <time>2010-11-14T07:26:30Z</time>
      </trkpt>
      <trkpt lat="47.17111" lon="-1.65274">
        <ele>29.4575195</ele>
        <time>2010-11-14T07:26:37Z</time>
      </trkpt>
      <trkpt lat="47.17116" lon="-1.65203">
        <ele>28.0155029</ele>
        <time>2010-11-14T07:26:44Z</time>
      </trkpt>
      <trkpt lat="47.17111" lon="-1.65131">
        <ele>26.5736084</ele>
        <time>2010-11-14T07:26:51Z</time>
      </trkpt>
      <trkpt lat="47.17106" lon="-1.65063">
        <ele>26.5736084</ele>
        <time>2010-11-14T07:26:58Z</time>
      </trkpt>
      <trkpt lat="47.17101" lon="-1.64993">
        <ele>26.0928955</ele>
        <time>2010-11-14T07:27:05Z</time>
      </trkpt>
      <trkpt lat="47.17096" lon="-1.64922">
        <ele>25.6123047</ele>
        <time>2010-11-14T07:27:12Z</time>
      </trkpt>
      <trkpt lat="47.17091" lon="-1.64853">
        <ele>26.0928955</ele>
        <time>2010-11-14T07:27:19Z</time>
      </trkpt>
      <trkpt lat="47.17086" lon="-1.64783">
        <ele>26.5736084</ele>
        <time>2010-11-14T07:27:26Z</time>
      </trkpt>
      <trkpt lat="47.17083" lon="-1.64714">
        <ele>27.0543213</ele>
        <time>2010-11-14T07:27:33Z</time>
      </trkpt>
      <trkpt lat="47.17081" lon="-1.64645">
        <ele>27.0543213</ele>
        <time>2010-11-14T07:27:40Z</time>
      </trkpt>
      <trkpt lat="47.17081" lon="-1.64576">
        <ele>27.5349121</ele>
        <time>2010-11-14T07:27:47Z</time>
      </trkpt>
      <trkpt lat="47.17083" lon="-1.64507">
        <ele>28.0155029</ele>
        <time>2010-11-14T07:27:54Z</time>
      </trkpt>
      <trkpt lat="47.17086" lon="-1.64437">
        <ele>28.4962158</ele>
        <time>2010-11-14T07:28:01Z</time>
      </trkpt>
      <trkpt lat="47.17092" lon="-1.64367">
        <ele>28.9769287</ele>
        <time>2010-11-14T07:28:08Z</time>
      </trkpt>
      <trkpt lat="47.17099" lon="-1.64297">
        <ele>28.9769287</ele>
        <time>2010-11-14T07:28:15Z</time>
      </trkpt>
      <trkpt lat="47.17108" lon="-1.64225">
        <ele>28.4962158</ele>
        <time>2010-11-14T07:28:22Z</time>
      </trkpt>
      <trkpt lat="47.17115" lon="-1.64151">
        <ele>28.4962158</ele>
        <time>2010-11-14T07:28:29Z</time>
      </trkpt>
      <trkpt lat="47.17123" lon="-1.64078">
        <ele>27.5349121</ele>
        <time>2010-11-14T07:28:36Z</time>
      </trkpt>
      <trkpt lat="47.17131" lon="-1.64004">
        <ele>27.5349121</ele>
        <time>2010-11-14T07:28:43Z</time>
      </trkpt>
      <trkpt lat="47.17139" lon="-1.63931">
        <ele>27.5349121</ele>
        <time>2010-11-14T07:28:50Z</time>
      </trkpt>
      <trkpt lat="47.17147" lon="-1.63857">
        <ele>28.0155029</ele>
        <time>2010-11-14T07:28:57Z</time>
      </trkpt>
      <trkpt lat="47.17155" lon="-1.63783">
        <ele>27.0543213</ele>
        <time>2010-11-14T07:29:04Z</time>
      </trkpt>
      <trkpt lat="47.17163" lon="-1.63708">
        <ele>26.5736084</ele>
        <time>2010-11-14T07:29:11Z</time>
      </trkpt>
      <trkpt lat="47.1717" lon="-1.63643">
        <ele>25.6123047</ele>
        <time>2010-11-14T07:29:17Z</time>
      </trkpt>
      <trkpt lat="47.17178" lon="-1.63575">
        <ele>25.1317139</ele>
        <time>2010-11-14T07:29:23Z</time>
      </trkpt>
      <trkpt lat="47.17186" lon="-1.63507">
        <ele>24.651001</ele>
        <time>2010-11-14T07:29:29Z</time>
      </trkpt>
      <trkpt lat="47.17197" lon="-1.63439">
        <ele>23.6895752</ele>
        <time>2010-11-14T07:29:35Z</time>
      </trkpt>
      <trkpt lat="47.17208" lon="-1.6337">
        <ele>22.7282715</ele>
        <time>2010-11-14T07:29:41Z</time>
      </trkpt>
      <trkpt lat="47.17221" lon="-1.63303">
        <ele>21.7669678</ele>
        <time>2010-11-14T07:29:47Z</time>
      </trkpt>
      <trkpt lat="47.17234" lon="-1.63238">
        <ele>21.286377</ele>
        <time>2010-11-14T07:29:53Z</time>
      </trkpt>
      <trkpt lat="47.17248" lon="-1.63172">
        <ele>20.8056641</ele>
        <time>2010-11-14T07:29:59Z</time>
      </trkpt>
      <trkpt lat="47.17264" lon="-1.63109">
        <ele>20.3249512</ele>
        <time>2010-11-14T07:30:05Z</time>
      </trkpt>
      <trkpt lat="47.1728" lon="-1.63045">
        <ele>19.8443604</ele>
        <time>2010-11-14T07:30:11Z</time>
      </trkpt>
      <trkpt lat="47.17298" lon="-1.62981">
        <ele>19.3637695</ele>
        <time>2010-11-14T07:30:17Z</time>
      </trkpt>
      <trkpt lat="47.17318" lon="-1.62921">
        <ele>17.9217529</ele>
        <time>2010-11-14T07:30:23Z</time>
      </trkpt>
      <trkpt lat="47.17341" lon="-1.62849">
        <ele>16.9604492</ele>
        <time>2010-11-14T07:30:30Z</time>
      </trkpt>
      <trkpt lat="47.17364" lon="-1.62785">
        <ele>15.9990234</ele>
        <time>2010-11-14T07:30:36Z</time>
      </trkpt>
      <trkpt lat="47.17389" lon="-1.62721">
        <ele>14.5570068</ele>
        <time>2010-11-14T07:30:42Z</time>
      </trkpt>
      <trkpt lat="47.17412" lon="-1.62654">
        <ele>13.5958252</ele>
        <time>2010-11-14T07:30:48Z</time>
      </trkpt>
      <trkpt lat="47.17435" lon="-1.62589">
        <ele>12.6343994</ele>
        <time>2010-11-14T07:30:54Z</time>
      </trkpt>
      <trkpt lat="47.17456" lon="-1.62527">
        <ele>13.1151123</ele>
        <time>2010-11-14T07:31:00Z</time>
      </trkpt>
      <trkpt lat="47.1748" lon="-1.62463">
        <ele>14.076416</ele>
        <time>2010-11-14T07:31:07Z</time>
      </trkpt>
      <trkpt lat="47.17495" lon="-1.62401">
        <ele>15.5184326</ele>
        <time>2010-11-14T07:31:14Z</time>
      </trkpt>
      <trkpt lat="47.17524" lon="-1.62378">
        <ele>16.9604492</ele>
        <time>2010-11-14T07:31:22Z</time>
      </trkpt>
      <trkpt lat="47.17569" lon="-1.62383">
        <ele>17.4411621</ele>
        <time>2010-11-14T07:31:30Z</time>
      </trkpt>
      <trkpt lat="47.17617" lon="-1.62356">
        <ele>17.9217529</ele>
        <time>2010-11-14T07:31:38Z</time>
      </trkpt>
      <trkpt lat="47.17664" lon="-1.6233">
        <ele>18.8830566</ele>
        <time>2010-11-14T07:31:46Z</time>
      </trkpt>
      <trkpt lat="47.17702" lon="-1.62292">
        <ele>19.3637695</ele>
        <time>2010-11-14T07:31:58Z</time>
      </trkpt>
      <trkpt lat="47.17718" lon="-1.62267">
        <ele>20.8056641</ele>
        <time>2010-11-14T07:40:32Z</time>
      </trkpt>
      <trkpt lat="47.17718" lon="-1.62198">
        <ele>23.2089844</ele>
        <time>2010-11-14T07:40:50Z</time>
      </trkpt>
      <trkpt lat="47.17727" lon="-1.62127">
        <ele>25.1317139</ele>
        <time>2010-11-14T07:41:03Z</time>
      </trkpt>
      <trkpt lat="47.17738" lon="-1.62059">
        <ele>24.651001</ele>
        <time>2010-11-14T07:41:35Z</time>
      </trkpt>
      <trkpt lat="47.17734" lon="-1.61997">
        <ele>22.7282715</ele>
        <time>2010-11-14T07:41:54Z</time>
      </trkpt>
      <trkpt lat="47.17742" lon="-1.61927">
        <ele>23.2089844</ele>
        <time>2010-11-14T07:42:07Z</time>
      </trkpt>
      <trkpt lat="47.17739" lon="-1.61874">
        <ele>21.7669678</ele>
        <time>2010-11-14T07:42:19Z</time>
      </trkpt>
      <trkpt lat="47.17708" lon="-1.61829">
        <ele>23.2089844</ele>
        <time>2010-11-14T07:42:32Z</time>
      </trkpt>
      <trkpt lat="47.17704" lon="-1.61761">
        <ele>23.2089844</ele>
        <time>2010-11-14T07:42:46Z</time>
      </trkpt>
      <trkpt lat="47.17716" lon="-1.61689">
        <ele>19.3637695</ele>
        <time>2010-11-14T07:42:55Z</time>
      </trkpt>
      <trkpt lat="47.17739" lon="-1.61623">
        <ele>15.9990234</ele>
        <time>2010-11-14T07:43:02Z</time>
      </trkpt>
      <trkpt lat="47.17729" lon="-1.61558">
        <ele>13.5958252</ele>
        <time>2010-11-14T07:43:11Z</time>
      </trkpt>
      <trkpt lat="47.17718" lon="-1.61491">
        <ele>11.6732178</ele>
        <time>2010-11-14T07:43:19Z</time>
      </trkpt>
      <trkpt lat="47.17728" lon="-1.61424">
        <ele>9.7506104</ele>
        <time>2010-11-14T07:43:27Z</time>
      </trkpt>
      <trkpt lat="47.17756" lon="-1.61372">
        <ele>9.7506104</ele>
        <time>2010-11-14T07:43:36Z</time>
      </trkpt>
      <trkpt lat="47.17797" lon="-1.61332">
        <ele>10.711792</ele>
        <time>2010-11-14T07:43:46Z</time>
      </trkpt>
      <trkpt lat="47.17824" lon="-1.61277">
        <ele>11.1925049</ele>
        <time>2010-11-14T07:44:00Z</time>
      </trkpt>
      <trkpt lat="47.17863" lon="-1.61238">
        <ele>6.8664551</ele>
        <time>2010-11-14T07:44:13Z</time>
      </trkpt>
      <trkpt lat="47.17888" lon="-1.61196">
        <ele>2.0600586</ele>
        <time>2010-11-14T07:44:27Z</time>
      </trkpt>
      <trkpt lat="47.17889" lon="-1.61127">
        <ele>3.5019531</ele>
        <time>2010-11-14T07:44:37Z</time>
      </trkpt>
      <trkpt lat="47.17887" lon="-1.61064">
        <ele>5.9052734</ele>
        <time>2010-11-14T07:44:46Z</time>
      </trkpt>
      <trkpt lat="47.17857" lon="-1.61008">
        <ele>5.9052734</ele>
        <time>2010-11-14T07:44:55Z</time>
      </trkpt>
      <trkpt lat="47.17833" lon="-1.60952">
        <ele>6.3858643</ele>
        <time>2010-11-14T07:45:05Z</time>
      </trkpt>
      <trkpt lat="47.17851" lon="-1.60921">
        <ele>10.2312012</ele>
        <time>2010-11-14T07:45:18Z</time>
      </trkpt>
      <trkpt lat="47.17897" lon="-1.6092">
        <ele>11.1925049</ele>
        <time>2010-11-14T07:45:31Z</time>
      </trkpt>
      <trkpt lat="47.17933" lon="-1.6096">
        <ele>10.711792</ele>
        <time>2010-11-14T07:45:42Z</time>
      </trkpt>
      <trkpt lat="47.17971" lon="-1.61006">
        <ele>10.711792</ele>
        <time>2010-11-14T07:45:53Z</time>
      </trkpt>
      <trkpt lat="47.18009" lon="-1.61041">
        <ele>10.711792</ele>
        <time>2010-11-14T07:46:03Z</time>
      </trkpt>
      <trkpt lat="47.18048" lon="-1.61075">
        <ele>10.2312012</ele>
        <time>2010-11-14T07:46:13Z</time>
      </trkpt>
      <trkpt lat="47.1808" lon="-1.61122">
        <ele>9.2698975</ele>
        <time>2010-11-14T07:46:23Z</time>
      </trkpt>
      <trkpt lat="47.1811" lon="-1.61177">
        <ele>7.8278809</ele>
        <time>2010-11-14T07:46:34Z</time>
      </trkpt>
      <trkpt lat="47.18146" lon="-1.61227">
        <ele>7.347168</ele>
        <time>2010-11-14T07:46:46Z</time>
      </trkpt>
      <trkpt lat="47.18182" lon="-1.61275">
        <ele>5.9052734</ele>
        <time>2010-11-14T07:46:58Z</time>
      </trkpt>
      <trkpt lat="47.18222" lon="-1.6131">
        <ele>5.4245605</ele>
        <time>2010-11-14T07:47:10Z</time>
      </trkpt>
      <trkpt lat="47.18263" lon="-1.6134">
        <ele>5.9052734</ele>
        <time>2010-11-14T07:47:22Z</time>
      </trkpt>
      <trkpt lat="47.18309" lon="-1.61367">
        <ele>5.9052734</ele>
        <time>2010-11-14T07:47:34Z</time>
      </trkpt>
      <trkpt lat="47.18354" lon="-1.61385">
        <ele>6.3858643</ele>
        <time>2010-11-14T07:47:45Z</time>
      </trkpt>
      <trkpt lat="47.184" lon="-1.61407">
        <ele>5.9052734</ele>
        <time>2010-11-14T07:47:57Z</time>
      </trkpt>
      <trkpt lat="47.18442" lon="-1.61406">
        <ele>3.982666</ele>
        <time>2010-11-14T07:48:10Z</time>
      </trkpt>
      <trkpt lat="47.18435" lon="-1.61336">
        <ele>2.5406494</ele>
        <time>2010-11-14T07:48:22Z</time>
      </trkpt>
      <trkpt lat="47.18432" lon="-1.61268">
        <ele>3.982666</ele>
        <time>2010-11-14T07:48:33Z</time>
      </trkpt>
      <trkpt lat="47.18427" lon="-1.61196">
        <ele>3.5019531</ele>
        <time>2010-11-14T07:48:44Z</time>
      </trkpt>
      <trkpt lat="47.18423" lon="-1.61125">
        <ele>3.982666</ele>
        <time>2010-11-14T07:48:54Z</time>
      </trkpt>
      <trkpt lat="47.1842" lon="-1.61059">
        <ele>3.0212402</ele>
        <time>2010-11-14T07:49:03Z</time>
      </trkpt>
      <trkpt lat="47.18418" lon="-1.60989">
        <ele>3.5019531</ele>
        <time>2010-11-14T07:49:13Z</time>
      </trkpt>
      <trkpt lat="47.18418" lon="-1.60921">
        <ele>3.5019531</ele>
        <time>2010-11-14T07:49:22Z</time>
      </trkpt>
      <trkpt lat="47.1842" lon="-1.60852">
        <ele>3.0212402</ele>
        <time>2010-11-14T07:49:31Z</time>
      </trkpt>
      <trkpt lat="47.18424" lon="-1.60782">
        <ele>3.0212402</ele>
        <time>2010-11-14T07:49:40Z</time>
      </trkpt>
      <trkpt lat="47.18433" lon="-1.60712">
        <ele>2.5406494</ele>
        <time>2010-11-14T07:49:49Z</time>
      </trkpt>
      <trkpt lat="47.18442" lon="-1.60645">
        <ele>3.0212402</ele>
        <time>2010-11-14T07:49:58Z</time>
      </trkpt>
      <trkpt lat="47.18455" lon="-1.60578">
        <ele>3.0212402</ele>
        <time>2010-11-14T07:50:07Z</time>
      </trkpt>
      <trkpt lat="47.18468" lon="-1.60515">
        <ele>2.0600586</ele>
        <time>2010-11-14T07:50:15Z</time>
      </trkpt>
      <trkpt lat="47.18484" lon="-1.60452">
        <ele>1.5793457</ele>
        <time>2010-11-14T07:50:23Z</time>
      </trkpt>
      <trkpt lat="47.18502" lon="-1.60391">
        <ele>1.0986328</ele>
        <time>2010-11-14T07:50:31Z</time>
      </trkpt>
      <trkpt lat="47.18525" lon="-1.60326">
        <ele>1.5793457</ele>
        <time>2010-11-14T07:50:40Z</time>
      </trkpt>
      <trkpt lat="47.18549" lon="-1.6026">
        <ele>1.0986328</ele>
        <time>2010-11-14T07:50:49Z</time>
      </trkpt>
      <trkpt lat="47.18572" lon="-1.602">
        <ele>0.1374512</ele>
        <time>2010-11-14T07:50:57Z</time>
      </trkpt>
      <trkpt lat="47.18593" lon="-1.60138">
        <ele>0.1374512</ele>
        <time>2010-11-14T07:51:05Z</time>
      </trkpt>
      <trkpt lat="47.18615" lon="-1.60079">
        <ele>0.1374512</ele>
        <time>2010-11-14T07:51:13Z</time>
      </trkpt>
      <trkpt lat="47.18635" lon="-1.6002">
        <ele>0.1374512</ele>
        <time>2010-11-14T07:51:21Z</time>
      </trkpt>
      <trkpt lat="47.18658" lon="-1.59956">
        <ele>-0.8240967</ele>
        <time>2010-11-14T07:51:30Z</time>
      </trkpt>
      <trkpt lat="47.1868" lon="-1.59893">
        <ele>0.1374512</ele>
        <time>2010-11-14T07:51:39Z</time>
      </trkpt>
      <trkpt lat="47.18706" lon="-1.59837">
        <ele>-0.3433838</ele>
        <time>2010-11-14T07:51:48Z</time>
      </trkpt>
      <trkpt lat="47.18718" lon="-1.59767">
        <ele>0.1374512</ele>
        <time>2010-11-14T07:51:57Z</time>
      </trkpt>
      <trkpt lat="47.18726" lon="-1.59696">
        <ele>0.1374512</ele>
        <time>2010-11-14T07:52:06Z</time>
      </trkpt>
      <trkpt lat="47.18731" lon="-1.59625">
        <ele>0.618042</ele>
        <time>2010-11-14T07:52:15Z</time>
      </trkpt>
      <trkpt lat="47.18737" lon="-1.59551">
        <ele>0.1374512</ele>
        <time>2010-11-14T07:52:24Z</time>
      </trkpt>
      <trkpt lat="47.18743" lon="-1.59481">
        <ele>0.618042</ele>
        <time>2010-11-14T07:52:33Z</time>
      </trkpt>
      <trkpt lat="47.18749" lon="-1.59409">
        <ele>1.0986328</ele>
        <time>2010-11-14T07:52:42Z</time>
      </trkpt>
      <trkpt lat="47.18756" lon="-1.59338">
        <ele>1.5793457</ele>
        <time>2010-11-14T07:52:51Z</time>
      </trkpt>
      <trkpt lat="47.18764" lon="-1.59266">
        <ele>1.0986328</ele>
        <time>2010-11-14T07:53:00Z</time>
      </trkpt>
      <trkpt lat="47.18772" lon="-1.59193">
        <ele>1.5793457</ele>
        <time>2010-11-14T07:53:09Z</time>
      </trkpt>
      <trkpt lat="47.1878" lon="-1.59121">
        <ele>2.0600586</ele>
        <time>2010-11-14T07:53:18Z</time>
      </trkpt>
      <trkpt lat="47.18787" lon="-1.59055">
        <ele>2.0600586</ele>
        <time>2010-11-14T07:53:26Z</time>
      </trkpt>
      <trkpt lat="47.18795" lon="-1.58989">
        <ele>2.5406494</ele>
        <time>2010-11-14T07:53:34Z</time>
      </trkpt>
      <trkpt lat="47.18816" lon="-1.58922">
        <ele>2.0600586</ele>
        <time>2010-11-14T07:53:43Z</time>
      </trkpt>
      <trkpt lat="47.18836" lon="-1.58857">
        <ele>1.0986328</ele>
        <time>2010-11-14T07:53:53Z</time>
      </trkpt>
      <trkpt lat="47.18858" lon="-1.588">
        <ele>-0.3433838</ele>
        <time>2010-11-14T07:54:05Z</time>
      </trkpt>
      <trkpt lat="47.18865" lon="-1.58736">
        <ele>0.1374512</ele>
        <time>2010-11-14T07:54:16Z</time>
      </trkpt>
      <trkpt lat="47.18909" lon="-1.58708">
        <ele>0.1374512</ele>
        <time>2010-11-14T07:54:27Z</time>
      </trkpt>
      <trkpt lat="47.18949" lon="-1.58671">
        <ele>0.1374512</ele>
        <time>2010-11-14T07:54:36Z</time>
      </trkpt>
      <trkpt lat="47.18988" lon="-1.58634">
        <ele>0.618042</ele>
        <time>2010-11-14T07:54:46Z</time>
      </trkpt>
      <trkpt lat="47.19028" lon="-1.58594">
        <ele>-0.3433838</ele>
        <time>2010-11-14T07:54:56Z</time>
      </trkpt>
      <trkpt lat="47.19046" lon="-1.58561">
        <ele>0.1374512</ele>
        <time>2010-11-14T07:55:11Z</time>
      </trkpt>
      <trkpt lat="47.19017" lon="-1.58515">
        <ele>1.5793457</ele>
        <time>2010-11-14T07:55:24Z</time>
      </trkpt>
      <trkpt lat="47.18992" lon="-1.58455">
        <ele>3.0212402</ele>
        <time>2010-11-14T07:55:35Z</time>
      </trkpt>
      <trkpt lat="47.18967" lon="-1.58395">
        <ele>1.5793457</ele>
        <time>2010-11-14T07:55:44Z</time>
      </trkpt>
      <trkpt lat="47.18947" lon="-1.58331">
        <ele>3.0212402</ele>
        <time>2010-11-14T07:55:53Z</time>
      </trkpt>
      <trkpt lat="47.1895" lon="-1.58263">
        <ele>2.0600586</ele>
        <time>2010-11-14T07:56:02Z</time>
      </trkpt>
      <trkpt lat="47.18972" lon="-1.58203">
        <ele>-0.3433838</ele>
        <time>2010-11-14T07:56:09Z</time>
      </trkpt>
      <trkpt lat="47.18995" lon="-1.58139">
        <ele>-1.3046875</ele>
        <time>2010-11-14T07:56:17Z</time>
      </trkpt>
      <trkpt lat="47.19018" lon="-1.58077">
        <ele>-1.7852783</ele>
        <time>2010-11-14T07:56:26Z</time>
      </trkpt>
      <trkpt lat="47.1904" lon="-1.5801">
        <ele>-2.7467041</ele>
        <time>2010-11-14T07:56:35Z</time>
      </trkpt>
      <trkpt lat="47.19061" lon="-1.57946">
        <ele>-3.2272949</ele>
        <time>2010-11-14T07:56:43Z</time>
      </trkpt>
      <trkpt lat="47.19083" lon="-1.57887">
        <ele>-3.2272949</ele>
        <time>2010-11-14T07:56:51Z</time>
      </trkpt>
      <trkpt lat="47.19107" lon="-1.5782">
        <ele>-1.7852783</ele>
        <time>2010-11-14T07:57:00Z</time>
      </trkpt>
      <trkpt lat="47.19132" lon="-1.57755">
        <ele>0.1374512</ele>
        <time>2010-11-14T07:57:09Z</time>
      </trkpt>
      <trkpt lat="47.19154" lon="-1.57691">
        <ele>0.1374512</ele>
        <time>2010-11-14T07:57:18Z</time>
      </trkpt>
      <trkpt lat="47.19179" lon="-1.57623">
        <ele>-1.3046875</ele>
        <time>2010-11-14T07:57:28Z</time>
      </trkpt>
      <trkpt lat="47.19201" lon="-1.57556">
        <ele>-1.7852783</ele>
        <time>2010-11-14T07:57:37Z</time>
      </trkpt>
      <trkpt lat="47.19218" lon="-1.57489">
        <ele>1.0986328</ele>
        <time>2010-11-14T07:57:46Z</time>
      </trkpt>
      <trkpt lat="47.1924" lon="-1.57426">
        <ele>0.618042</ele>
        <time>2010-11-14T07:57:55Z</time>
      </trkpt>
      <trkpt lat="47.19262" lon="-1.57364">
        <ele>1.5793457</ele>
        <time>2010-11-14T07:58:03Z</time>
      </trkpt>
      <trkpt lat="47.19282" lon="-1.57303">
        <ele>2.0600586</ele>
        <time>2010-11-14T07:58:11Z</time>
      </trkpt>
      <trkpt lat="47.19299" lon="-1.5724">
        <ele>1.5793457</ele>
        <time>2010-11-14T07:58:19Z</time>
      </trkpt>
      <trkpt lat="47.19313" lon="-1.57177">
        <ele>2.0600586</ele>
        <time>2010-11-14T07:58:27Z</time>
      </trkpt>
      <trkpt lat="47.19325" lon="-1.57113">
        <ele>1.0986328</ele>
        <time>2010-11-14T07:58:36Z</time>
      </trkpt>
      <trkpt lat="47.19299" lon="-1.57073">
        <ele>3.0212402</ele>
        <time>2010-11-14T07:58:50Z</time>
      </trkpt>
      <trkpt lat="47.19253" lon="-1.57051">
        <ele>4.9438477</ele>
        <time>2010-11-14T07:59:02Z</time>
      </trkpt>
      <trkpt lat="47.19263" lon="-1.56988">
        <ele>6.3858643</ele>
        <time>2010-11-14T07:59:15Z</time>
      </trkpt>
      <trkpt lat="47.19265" lon="-1.56917">
        <ele>5.9052734</ele>
        <time>2010-11-14T07:59:25Z</time>
      </trkpt>
      <trkpt lat="47.19254" lon="-1.56863">
        <ele>5.4245605</ele>
        <time>2010-11-14T07:59:35Z</time>
      </trkpt>
      <trkpt lat="47.19215" lon="-1.56851">
        <ele>3.0212402</ele>
        <time>2010-11-14T07:59:48Z</time>
      </trkpt>
      <trkpt lat="47.19215" lon="-1.56779">
        <ele>2.0600586</ele>
        <time>2010-11-14T07:59:59Z</time>
      </trkpt>
      <trkpt lat="47.1922" lon="-1.56711">
        <ele>2.0600586</ele>
        <time>2010-11-14T08:00:09Z</time>
      </trkpt>
      <trkpt lat="47.19223" lon="-1.56645">
        <ele>3.5019531</ele>
        <time>2010-11-14T08:00:19Z</time>
      </trkpt>
      <trkpt lat="47.1923" lon="-1.56578">
        <ele>3.5019531</ele>
        <time>2010-11-14T08:00:30Z</time>
      </trkpt>
      <trkpt lat="47.19228" lon="-1.56512">
        <ele>3.0212402</ele>
        <time>2010-11-14T08:00:40Z</time>
      </trkpt>
      <trkpt lat="47.19235" lon="-1.56443">
        <ele>3.5019531</ele>
        <time>2010-11-14T08:00:49Z</time>
      </trkpt>
      <trkpt lat="47.19223" lon="-1.5638">
        <ele>3.982666</ele>
        <time>2010-11-14T08:00:59Z</time>
      </trkpt>
      <trkpt lat="47.19215" lon="-1.56314">
        <ele>4.4632568</ele>
        <time>2010-11-14T08:01:09Z</time>
      </trkpt>
      <trkpt lat="47.19217" lon="-1.56244">
        <ele>4.9438477</ele>
        <time>2010-11-14T08:01:19Z</time>
      </trkpt>
      <trkpt lat="47.19231" lon="-1.56176">
        <ele>3.982666</ele>
        <time>2010-11-14T08:01:29Z</time>
      </trkpt>
      <trkpt lat="47.19231" lon="-1.56105">
        <ele>3.982666</ele>
        <time>2010-11-14T08:01:38Z</time>
      </trkpt>
      <trkpt lat="47.19227" lon="-1.56035">
        <ele>3.982666</ele>
        <time>2010-11-14T08:01:47Z</time>
      </trkpt>
      <trkpt lat="47.1922" lon="-1.55964">
        <ele>3.982666</ele>
        <time>2010-11-14T08:01:56Z</time>
      </trkpt>
      <trkpt lat="47.19212" lon="-1.55893">
        <ele>4.9438477</ele>
        <time>2010-11-14T08:02:05Z</time>
      </trkpt>
      <trkpt lat="47.19207" lon="-1.55822">
        <ele>6.3858643</ele>
        <time>2010-11-14T08:02:15Z</time>
      </trkpt>
      <trkpt lat="47.19208" lon="-1.55754">
        <ele>8.7891846</ele>
        <time>2010-11-14T08:02:25Z</time>
      </trkpt>
      <trkpt lat="47.19201" lon="-1.55681">
        <ele>7.347168</ele>
        <time>2010-11-14T08:02:36Z</time>
      </trkpt>
      <trkpt lat="47.19201" lon="-1.55611">
        <ele>6.8664551</ele>
        <time>2010-11-14T08:02:44Z</time>
      </trkpt>
      <trkpt lat="47.19207" lon="-1.55545">
        <ele>7.347168</ele>
        <time>2010-11-14T08:02:52Z</time>
      </trkpt>
      <trkpt lat="47.19213" lon="-1.55479">
        <ele>7.8278809</ele>
        <time>2010-11-14T08:03:01Z</time>
      </trkpt>
      <trkpt lat="47.19215" lon="-1.55413">
        <ele>9.2698975</ele>
        <time>2010-11-14T08:03:13Z</time>
      </trkpt>
      <trkpt lat="47.19241" lon="-1.5536">
        <ele>8.7891846</ele>
        <time>2010-11-14T08:03:24Z</time>
      </trkpt>
      <trkpt lat="47.19251" lon="-1.55287">
        <ele>5.9052734</ele>
        <time>2010-11-14T08:03:35Z</time>
      </trkpt>
      <trkpt lat="47.19261" lon="-1.55217">
        <ele>5.9052734</ele>
        <time>2010-11-14T08:03:47Z</time>
      </trkpt>
      <trkpt lat="47.19259" lon="-1.5516">
        <ele>3.5019531</ele>
        <time>2010-11-14T08:04:01Z</time>
      </trkpt>
      <trkpt lat="47.19226" lon="-1.55175">
        <ele>4.4632568</ele>
        <time>2010-11-14T08:04:13Z</time>
      </trkpt>
      <trkpt lat="47.19192" lon="-1.55193">
        <ele>4.4632568</ele>
        <time>2010-11-14T08:04:25Z</time>
      </trkpt>
      <trkpt lat="47.1915" lon="-1.55162">
        <ele>10.711792</ele>
        <time>2010-11-14T08:04:39Z</time>
      </trkpt>
      <trkpt lat="47.19115" lon="-1.55113">
        <ele>16.9604492</ele>
        <time>2010-11-14T08:04:52Z</time>
      </trkpt>
      <trkpt lat="47.19118" lon="-1.55064">
        <ele>15.9990234</ele>
        <time>2010-11-14T08:05:05Z</time>
      </trkpt>
      <trkpt lat="47.19151" lon="-1.55015">
        <ele>13.5958252</ele>
        <time>2010-11-14T08:05:13Z</time>
      </trkpt>
      <trkpt lat="47.1918" lon="-1.5496">
        <ele>11.1925049</ele>
        <time>2010-11-14T08:05:20Z</time>
      </trkpt>
      <trkpt lat="47.19179" lon="-1.54905">
        <ele>11.1925049</ele>
        <time>2010-11-14T08:05:31Z</time>
      </trkpt>
      <trkpt lat="47.19187" lon="-1.54846">
        <ele>13.5958252</ele>
        <time>2010-11-14T08:05:45Z</time>
      </trkpt>
      <trkpt lat="47.19214" lon="-1.54789">
        <ele>13.5958252</ele>
        <time>2010-11-14T08:05:56Z</time>
      </trkpt>
      <trkpt lat="47.19253" lon="-1.54754">
        <ele>12.1538086</ele>
        <time>2010-11-14T08:06:06Z</time>
      </trkpt>
      <trkpt lat="47.19248" lon="-1.5469">
        <ele>10.711792</ele>
        <time>2010-11-14T08:06:24Z</time>
      </trkpt>
      <trkpt lat="47.19228" lon="-1.54629">
        <ele>10.2312012</ele>
        <time>2010-11-14T08:06:35Z</time>
      </trkpt>
      <trkpt lat="47.19205" lon="-1.54574">
        <ele>10.711792</ele>
        <time>2010-11-14T08:06:45Z</time>
      </trkpt>
      <trkpt lat="47.19188" lon="-1.54504">
        <ele>10.711792</ele>
        <time>2010-11-14T08:06:55Z</time>
      </trkpt>
      <trkpt lat="47.19182" lon="-1.54436">
        <ele>9.7506104</ele>
        <time>2010-11-14T08:07:05Z</time>
      </trkpt>
      <trkpt lat="47.19189" lon="-1.54375">
        <ele>8.3085938</ele>
        <time>2010-11-14T08:07:17Z</time>
      </trkpt>
      <trkpt lat="47.19237" lon="-1.54367">
        <ele>6.8664551</ele>
        <time>2010-11-14T08:07:26Z</time>
      </trkpt>
      <trkpt lat="47.19278" lon="-1.54337">
        <ele>5.4245605</ele>
        <time>2010-11-14T08:07:34Z</time>
      </trkpt>
      <trkpt lat="47.19303" lon="-1.5428">
        <ele>3.5019531</ele>
        <time>2010-11-14T08:07:45Z</time>
      </trkpt>
      <trkpt lat="47.19307" lon="-1.54214">
        <ele>3.0212402</ele>
        <time>2010-11-14T08:07:59Z</time>
      </trkpt>
      <trkpt lat="47.19276" lon="-1.54165">
        <ele>4.4632568</ele>
        <time>2010-11-14T08:08:11Z</time>
      </trkpt>
      <trkpt lat="47.19248" lon="-1.54105">
        <ele>4.9438477</ele>
        <time>2010-11-14T08:08:21Z</time>
      </trkpt>
      <trkpt lat="47.19223" lon="-1.54042">
        <ele>4.9438477</ele>
        <time>2010-11-14T08:08:31Z</time>
      </trkpt>
      <trkpt lat="47.19192" lon="-1.53986">
        <ele>7.347168</ele>
        <time>2010-11-14T08:08:41Z</time>
      </trkpt>
      <trkpt lat="47.19162" lon="-1.53933">
        <ele>8.7891846</ele>
        <time>2010-11-14T08:08:50Z</time>
      </trkpt>
      <trkpt lat="47.19127" lon="-1.5389">
        <ele>10.2312012</ele>
        <time>2010-11-14T08:09:00Z</time>
      </trkpt>
      <trkpt lat="47.1909" lon="-1.53841">
        <ele>12.6343994</ele>
        <time>2010-11-14T08:09:10Z</time>
      </trkpt>
      <trkpt lat="47.1905" lon="-1.53792">
        <ele>14.5570068</ele>
        <time>2010-11-14T08:09:22Z</time>
      </trkpt>
      <trkpt lat="47.19013" lon="-1.53744">
        <ele>16.9604492</ele>
        <time>2010-11-14T08:09:31Z</time>
      </trkpt>
      <trkpt lat="47.18973" lon="-1.53706">
        <ele>20.3249512</ele>
        <time>2010-11-14T08:09:40Z</time>
      </trkpt>
      <trkpt lat="47.18931" lon="-1.5367">
        <ele>17.9217529</ele>
        <time>2010-11-14T08:09:49Z</time>
      </trkpt>
      <trkpt lat="47.18888" lon="-1.53643">
        <ele>16.9604492</ele>
        <time>2010-11-14T08:09:58Z</time>
      </trkpt>
      <trkpt lat="47.18845" lon="-1.53616">
        <ele>17.9217529</ele>
        <time>2010-11-14T08:10:07Z</time>
      </trkpt>
      <trkpt lat="47.18796" lon="-1.53602">
        <ele>15.0377197</ele>
        <time>2010-11-14T08:10:16Z</time>
      </trkpt>
      <trkpt lat="47.18745" lon="-1.53586">
        <ele>13.5958252</ele>
        <time>2010-11-14T08:10:25Z</time>
      </trkpt>
      <trkpt lat="47.18697" lon="-1.53572">
        <ele>11.6732178</ele>
        <time>2010-11-14T08:10:34Z</time>
      </trkpt>
      <trkpt lat="47.1865" lon="-1.53553">
        <ele>10.2312012</ele>
        <time>2010-11-14T08:10:43Z</time>
      </trkpt>
      <trkpt lat="47.18606" lon="-1.53524">
        <ele>10.2312012</ele>
        <time>2010-11-14T08:10:52Z</time>
      </trkpt>
      <trkpt lat="47.18562" lon="-1.53486">
        <ele>12.1538086</ele>
        <time>2010-11-14T08:11:02Z</time>
      </trkpt>
      <trkpt lat="47.18522" lon="-1.53451">
        <ele>11.1925049</ele>
        <time>2010-11-14T08:11:11Z</time>
      </trkpt>
      <trkpt lat="47.18486" lon="-1.53408">
        <ele>15.5184326</ele>
        <time>2010-11-14T08:11:23Z</time>
      </trkpt>
      <trkpt lat="47.18444" lon="-1.53359">
        <ele>15.9990234</ele>
        <time>2010-11-14T08:11:31Z</time>
      </trkpt>
      <trkpt lat="47.18404" lon="-1.53313">
        <ele>15.9990234</ele>
        <time>2010-11-14T08:11:39Z</time>
      </trkpt>
      <trkpt lat="47.18367" lon="-1.53265">
        <ele>15.9990234</ele>
        <time>2010-11-14T08:11:47Z</time>
      </trkpt>
      <trkpt lat="47.1833" lon="-1.53216">
        <ele>15.0377197</ele>
        <time>2010-11-14T08:11:57Z</time>
      </trkpt>
      <trkpt lat="47.18294" lon="-1.53173">
        <ele>13.1151123</ele>
        <time>2010-11-14T08:12:08Z</time>
      </trkpt>
      <trkpt lat="47.18253" lon="-1.53201">
        <ele>10.711792</ele>
        <time>2010-11-14T08:12:19Z</time>
      </trkpt>
      <trkpt lat="47.18273" lon="-1.53151">
        <ele>9.2698975</ele>
        <time>2010-11-14T08:12:34Z</time>
      </trkpt>
      <trkpt lat="47.18316" lon="-1.53115">
        <ele>8.7891846</ele>
        <time>2010-11-14T08:12:44Z</time>
      </trkpt>
      <trkpt lat="47.18356" lon="-1.53081">
        <ele>8.7891846</ele>
        <time>2010-11-14T08:12:53Z</time>
      </trkpt>
      <trkpt lat="47.18356" lon="-1.53052">
        <ele>6.8664551</ele>
        <time>2010-11-14T08:13:06Z</time>
      </trkpt>
      <trkpt lat="47.18322" lon="-1.53008">
        <ele>4.9438477</ele>
        <time>2010-11-14T08:13:17Z</time>
      </trkpt>
      <trkpt lat="47.18301" lon="-1.52947">
        <ele>4.9438477</ele>
        <time>2010-11-14T08:13:26Z</time>
      </trkpt>
      <trkpt lat="47.18272" lon="-1.5289">
        <ele>4.9438477</ele>
        <time>2010-11-14T08:13:36Z</time>
      </trkpt>
      <trkpt lat="47.18262" lon="-1.52819">
        <ele>6.3858643</ele>
        <time>2010-11-14T08:13:46Z</time>
      </trkpt>
      <trkpt lat="47.18239" lon="-1.52761">
        <ele>7.347168</ele>
        <time>2010-11-14T08:13:57Z</time>
      </trkpt>
      <trkpt lat="47.18239" lon="-1.52693">
        <ele>6.8664551</ele>
        <time>2010-11-14T08:14:07Z</time>
      </trkpt>
      <trkpt lat="47.18238" lon="-1.52626">
        <ele>7.347168</ele>
        <time>2010-11-14T08:14:18Z</time>
      </trkpt>
      <trkpt lat="47.18212" lon="-1.52575">
        <ele>12.6343994</ele>
        <time>2010-11-14T08:14:30Z</time>
      </trkpt>
      <trkpt lat="47.18194" lon="-1.52507">
        <ele>16.4797363</ele>
        <time>2010-11-14T08:14:40Z</time>
      </trkpt>
      <trkpt lat="47.18189" lon="-1.52438">
        <ele>18.8830566</ele>
        <time>2010-11-14T08:14:51Z</time>
      </trkpt>
      <trkpt lat="47.18182" lon="-1.52363">
        <ele>16.4797363</ele>
        <time>2010-11-14T08:15:03Z</time>
      </trkpt>
      <trkpt lat="47.18189" lon="-1.52288">
        <ele>13.5958252</ele>
        <time>2010-11-14T08:15:13Z</time>
      </trkpt>
      <trkpt lat="47.18176" lon="-1.52222">
        <ele>10.711792</ele>
        <time>2010-11-14T08:15:23Z</time>
      </trkpt>
      <trkpt lat="47.18159" lon="-1.5216">
        <ele>9.7506104</ele>
        <time>2010-11-14T08:15:32Z</time>
      </trkpt>
      <trkpt lat="47.18133" lon="-1.52101">
        <ele>9.7506104</ele>
        <time>2010-11-14T08:15:42Z</time>
      </trkpt>
      <trkpt lat="47.18123" lon="-1.52032">
        <ele>9.2698975</ele>
        <time>2010-11-14T08:15:52Z</time>
      </trkpt>
      <trkpt lat="47.18116" lon="-1.5196">
        <ele>11.6732178</ele>
        <time>2010-11-14T08:16:03Z</time>
      </trkpt>
      <trkpt lat="47.18106" lon="-1.51893">
        <ele>15.9990234</ele>
        <time>2010-11-14T08:16:21Z</time>
      </trkpt>
      <trkpt lat="47.18114" lon="-1.51824">
        <ele>16.4797363</ele>
        <time>2010-11-14T08:16:31Z</time>
      </trkpt>
      <trkpt lat="47.18146" lon="-1.51775">
        <ele>15.9990234</ele>
        <time>2010-11-14T08:16:41Z</time>
      </trkpt>
      <trkpt lat="47.18146" lon="-1.51701">
        <ele>13.1151123</ele>
        <time>2010-11-14T08:16:53Z</time>
      </trkpt>
      <trkpt lat="47.18142" lon="-1.51626">
        <ele>12.6343994</ele>
        <time>2010-11-14T08:17:03Z</time>
      </trkpt>
      <trkpt lat="47.18122" lon="-1.51566">
        <ele>12.6343994</ele>
        <time>2010-11-14T08:17:14Z</time>
      </trkpt>
      <trkpt lat="47.18108" lon="-1.51502">
        <ele>10.711792</ele>
        <time>2010-11-14T08:17:25Z</time>
      </trkpt>
      <trkpt lat="47.18093" lon="-1.5145">
        <ele>8.7891846</ele>
        <time>2010-11-14T08:17:46Z</time>
      </trkpt>
      <trkpt lat="47.18107" lon="-1.51435">
        <ele>10.2312012</ele>
        <time>2010-11-14T08:18:01Z</time>
      </trkpt>
      <trkpt lat="47.18084" lon="-1.51375">
        <ele>12.1538086</ele>
        <time>2010-11-14T08:18:17Z</time>
      </trkpt>
      <trkpt lat="47.18066" lon="-1.51311">
        <ele>13.1151123</ele>
        <time>2010-11-14T08:18:28Z</time>
      </trkpt>
      <trkpt lat="47.18058" lon="-1.51242">
        <ele>15.0377197</ele>
        <time>2010-11-14T08:18:40Z</time>
      </trkpt>
      <trkpt lat="47.18053" lon="-1.51168">
        <ele>14.076416</ele>
        <time>2010-11-14T08:18:54Z</time>
      </trkpt>
      <trkpt lat="47.18008" lon="-1.5115">
        <ele>10.711792</ele>
        <time>2010-11-14T08:19:05Z</time>
      </trkpt>
      <trkpt lat="47.17968" lon="-1.51119">
        <ele>9.7506104</ele>
        <time>2010-11-14T08:19:15Z</time>
      </trkpt>
      <trkpt lat="47.1793" lon="-1.51072">
        <ele>9.2698975</ele>
        <time>2010-11-14T08:19:26Z</time>
      </trkpt>
      <trkpt lat="47.17896" lon="-1.51022">
        <ele>8.7891846</ele>
        <time>2010-11-14T08:19:36Z</time>
      </trkpt>
      <trkpt lat="47.17862" lon="-1.50973">
        <ele>8.3085938</ele>
        <time>2010-11-14T08:19:46Z</time>
      </trkpt>
      <trkpt lat="47.17826" lon="-1.50932">
        <ele>8.3085938</ele>
        <time>2010-11-14T08:19:55Z</time>
      </trkpt>
      <trkpt lat="47.17788" lon="-1.50893">
        <ele>11.1925049</ele>
        <time>2010-11-14T08:20:04Z</time>
      </trkpt>
      <trkpt lat="47.17748" lon="-1.50846">
        <ele>10.711792</ele>
        <time>2010-11-14T08:20:14Z</time>
      </trkpt>
      <trkpt lat="47.17711" lon="-1.50799">
        <ele>9.2698975</ele>
        <time>2010-11-14T08:20:24Z</time>
      </trkpt>
      <trkpt lat="47.17672" lon="-1.50819">
        <ele>8.7891846</ele>
        <time>2010-11-14T08:20:35Z</time>
      </trkpt>
      <trkpt lat="47.17634" lon="-1.50781">
        <ele>8.7891846</ele>
        <time>2010-11-14T08:20:46Z</time>
      </trkpt>
      <trkpt lat="47.1765" lon="-1.50715">
        <ele>9.2698975</ele>
        <time>2010-11-14T08:20:56Z</time>
      </trkpt>
      <trkpt lat="47.17618" lon="-1.50663">
        <ele>12.1538086</ele>
        <time>2010-11-14T08:21:11Z</time>
      </trkpt>
      <trkpt lat="47.17582" lon="-1.50616">
        <ele>13.5958252</ele>
        <time>2010-11-14T08:21:23Z</time>
      </trkpt>
      <trkpt lat="47.17543" lon="-1.50571">
        <ele>21.286377</ele>
        <time>2010-11-14T08:21:34Z</time>
      </trkpt>
      <trkpt lat="47.17509" lon="-1.50519">
        <ele>27.5349121</ele>
        <time>2010-11-14T08:21:44Z</time>
      </trkpt>
      <trkpt lat="47.17478" lon="-1.50467">
        <ele>32.3415527</ele>
        <time>2010-11-14T08:21:53Z</time>
      </trkpt>
      <trkpt lat="47.17457" lon="-1.50396">
        <ele>27.5349121</ele>
        <time>2010-11-14T08:22:02Z</time>
      </trkpt>
      <trkpt lat="47.1743" lon="-1.50334">
        <ele>22.7282715</ele>
        <time>2010-11-14T08:22:11Z</time>
      </trkpt>
      <trkpt lat="47.17405" lon="-1.50274">
        <ele>19.8443604</ele>
        <time>2010-11-14T08:22:20Z</time>
      </trkpt>
      <trkpt lat="47.17376" lon="-1.50213">
        <ele>17.4411621</ele>
        <time>2010-11-14T08:22:29Z</time>
      </trkpt>
      <trkpt lat="47.17349" lon="-1.50158">
        <ele>18.4023438</ele>
        <time>2010-11-14T08:22:37Z</time>
      </trkpt>
      <trkpt lat="47.17322" lon="-1.50097">
        <ele>20.8056641</ele>
        <time>2010-11-14T08:22:46Z</time>
      </trkpt>
      <trkpt lat="47.17292" lon="-1.50046">
        <ele>19.8443604</ele>
        <time>2010-11-14T08:22:54Z</time>
      </trkpt>
      <trkpt lat="47.17262" lon="-1.49991">
        <ele>20.8056641</ele>
        <time>2010-11-14T08:23:03Z</time>
      </trkpt>
      <trkpt lat="47.17241" lon="-1.49922">
        <ele>21.7669678</ele>
        <time>2010-11-14T08:23:12Z</time>
      </trkpt>
      <trkpt lat="47.17218" lon="-1.49856">
        <ele>22.2475586</ele>
        <time>2010-11-14T08:23:21Z</time>
      </trkpt>
      <trkpt lat="47.17197" lon="-1.49793">
        <ele>22.7282715</ele>
        <time>2010-11-14T08:23:29Z</time>
      </trkpt>
      <trkpt lat="47.17178" lon="-1.49729">
        <ele>24.1702881</ele>
        <time>2010-11-14T08:23:37Z</time>
      </trkpt>
      <trkpt lat="47.17157" lon="-1.49665">
        <ele>27.0543213</ele>
        <time>2010-11-14T08:23:46Z</time>
      </trkpt>
      <trkpt lat="47.17141" lon="-1.49595">
        <ele>26.5736084</ele>
        <time>2010-11-14T08:23:55Z</time>
      </trkpt>
      <trkpt lat="47.17127" lon="-1.49528">
        <ele>26.0928955</ele>
        <time>2010-11-14T08:24:03Z</time>
      </trkpt>
      <trkpt lat="47.17111" lon="-1.49458">
        <ele>27.0543213</ele>
        <time>2010-11-14T08:24:12Z</time>
      </trkpt>
      <trkpt lat="47.17088" lon="-1.49393">
        <ele>28.4962158</ele>
        <time>2010-11-14T08:24:23Z</time>
      </trkpt>
      <trkpt lat="47.17069" lon="-1.49327">
        <ele>28.9769287</ele>
        <time>2010-11-14T08:24:32Z</time>
      </trkpt>
      <trkpt lat="47.17046" lon="-1.49264">
        <ele>31.380127</ele>
        <time>2010-11-14T08:24:40Z</time>
      </trkpt>
      <trkpt lat="47.17023" lon="-1.49205">
        <ele>33.7834473</ele>
        <time>2010-11-14T08:24:48Z</time>
      </trkpt>
      <trkpt lat="47.16997" lon="-1.49143">
        <ele>39.5512695</ele>
        <time>2010-11-14T08:24:57Z</time>
      </trkpt>
      <trkpt lat="47.16979" lon="-1.49078">
        <ele>43.3966064</ele>
        <time>2010-11-14T08:25:05Z</time>
      </trkpt>
      <trkpt lat="47.16956" lon="-1.49013">
        <ele>46.2806396</ele>
        <time>2010-11-14T08:25:14Z</time>
      </trkpt>
      <trkpt lat="47.1694" lon="-1.48938">
        <ele>46.2806396</ele>
        <time>2010-11-14T08:25:23Z</time>
      </trkpt>
      <trkpt lat="47.16926" lon="-1.4886">
        <ele>45.3192139</ele>
        <time>2010-11-14T08:25:32Z</time>
      </trkpt>
      <trkpt lat="47.16912" lon="-1.48792">
        <ele>43.8773193</ele>
        <time>2010-11-14T08:25:40Z</time>
      </trkpt>
      <trkpt lat="47.16896" lon="-1.48727">
        <ele>45.3192139</ele>
        <time>2010-11-14T08:25:48Z</time>
      </trkpt>
      <trkpt lat="47.1688" lon="-1.48658">
        <ele>47.2418213</ele>
        <time>2010-11-14T08:25:57Z</time>
      </trkpt>
      <trkpt lat="47.16874" lon="-1.48573">
        <ele>39.5512695</ele>
        <time>2010-11-14T08:26:06Z</time>
      </trkpt>
      <trkpt lat="47.16886" lon="-1.48505">
        <ele>33.3028564</ele>
        <time>2010-11-14T08:26:14Z</time>
      </trkpt>
      <trkpt lat="47.16903" lon="-1.48432">
        <ele>29.4575195</ele>
        <time>2010-11-14T08:26:23Z</time>
      </trkpt>
      <trkpt lat="47.1692" lon="-1.48367">
        <ele>26.5736084</ele>
        <time>2010-11-14T08:26:31Z</time>
      </trkpt>
      <trkpt lat="47.16931" lon="-1.48301">
        <ele>27.5349121</ele>
        <time>2010-11-14T08:26:39Z</time>
      </trkpt>
      <trkpt lat="47.1692" lon="-1.48233">
        <ele>26.5736084</ele>
        <time>2010-11-14T08:26:48Z</time>
      </trkpt>
      <trkpt lat="47.1689" lon="-1.48182">
        <ele>24.651001</ele>
        <time>2010-11-14T08:26:57Z</time>
      </trkpt>
      <trkpt lat="47.1686" lon="-1.48122">
        <ele>25.1317139</ele>
        <time>2010-11-14T08:27:07Z</time>
      </trkpt>
      <trkpt lat="47.16826" lon="-1.48075">
        <ele>22.2475586</ele>
        <time>2010-11-14T08:27:19Z</time>
      </trkpt>
      <trkpt lat="47.16802" lon="-1.48015">
        <ele>19.3637695</ele>
        <time>2010-11-14T08:27:35Z</time>
      </trkpt>
      <trkpt lat="47.16817" lon="-1.48037">
        <ele>9.2698975</ele>
        <time>2010-11-14T08:35:32Z</time>
      </trkpt>
      <trkpt lat="47.16847" lon="-1.48085">
        <ele>7.8278809</ele>
        <time>2010-11-14T08:35:45Z</time>
      </trkpt>
      <trkpt lat="47.16882" lon="-1.48135">
        <ele>5.4245605</ele>
        <time>2010-11-14T08:35:58Z</time>
      </trkpt>
      <trkpt lat="47.16911" lon="-1.48188">
        <ele>6.3858643</ele>
        <time>2010-11-14T08:36:10Z</time>
      </trkpt>
      <trkpt lat="47.16938" lon="-1.48247">
        <ele>6.3858643</ele>
        <time>2010-11-14T08:36:21Z</time>
      </trkpt>
      <trkpt lat="47.16939" lon="-1.48322">
        <ele>3.982666</ele>
        <time>2010-11-14T08:36:32Z</time>
      </trkpt>
      <trkpt lat="47.16926" lon="-1.48388">
        <ele>-4.1885986</ele>
        <time>2010-11-14T08:36:42Z</time>
      </trkpt>
      <trkpt lat="47.1691" lon="-1.48456">
        <ele>-10.4372559</ele>
        <time>2010-11-14T08:36:52Z</time>
      </trkpt>
      <trkpt lat="47.16899" lon="-1.48529">
        <ele>-17.1663818</ele>
        <time>2010-11-14T08:37:03Z</time>
      </trkpt>
      <trkpt lat="47.16904" lon="-1.48601">
        <ele>-20.5310059</ele>
        <time>2010-11-14T08:37:13Z</time>
      </trkpt>
      <trkpt lat="47.16919" lon="-1.48668">
        <ele>-22.9342041</ele>
        <time>2010-11-14T08:37:23Z</time>
      </trkpt>
      <trkpt lat="47.16934" lon="-1.48735">
        <ele>-24.3763428</ele>
        <time>2010-11-14T08:37:33Z</time>
      </trkpt>
      <trkpt lat="47.16951" lon="-1.48801">
        <ele>-28.7021484</ele>
        <time>2010-11-14T08:37:42Z</time>
      </trkpt>
      <trkpt lat="47.16965" lon="-1.48869">
        <ele>-27.2602539</ele>
        <time>2010-11-14T08:37:51Z</time>
      </trkpt>
      <trkpt lat="47.1698" lon="-1.48934">
        <ele>-29.1828613</ele>
        <time>2010-11-14T08:38:00Z</time>
      </trkpt>
      <trkpt lat="47.16997" lon="-1.49001">
        <ele>-30.6247559</ele>
        <time>2010-11-14T08:38:09Z</time>
      </trkpt>
      <trkpt lat="47.17019" lon="-1.49063">
        <ele>-33.989502</ele>
        <time>2010-11-14T08:38:18Z</time>
      </trkpt>
      <trkpt lat="47.17044" lon="-1.49123">
        <ele>-43.6026611</ele>
        <time>2010-11-14T08:38:27Z</time>
      </trkpt>
      <trkpt lat="47.17072" lon="-1.49184">
        <ele>-57.541748</ele>
        <time>2010-11-14T08:38:37Z</time>
      </trkpt>
      <trkpt lat="47.17103" lon="-1.49242">
        <ele>-71.480835</ele>
        <time>2010-11-14T08:38:46Z</time>
      </trkpt>
      <trkpt lat="47.1713" lon="-1.49305">
        <ele>-82.5360107</ele>
        <time>2010-11-14T08:38:56Z</time>
      </trkpt>
      <trkpt lat="47.17151" lon="-1.4937">
        <ele>-82.5360107</ele>
        <time>2010-11-14T08:39:09Z</time>
      </trkpt>
      <trkpt lat="47.17171" lon="-1.49434">
        <ele>-82.5360107</ele>
        <time>2010-11-14T08:39:18Z</time>
      </trkpt>
      <trkpt lat="47.17186" lon="-1.49505">
        <ele>-81.5748291</ele>
        <time>2010-11-14T08:39:27Z</time>
      </trkpt>
      <trkpt lat="47.17198" lon="-1.49579">
        <ele>-74.845459</ele>
        <time>2010-11-14T08:39:35Z</time>
      </trkpt>
      <trkpt lat="47.17211" lon="-1.49645">
        <ele>-71.0001221</ele>
        <time>2010-11-14T08:39:43Z</time>
      </trkpt>
      <trkpt lat="47.17228" lon="-1.49708">
        <ele>-69.0775146</ele>
        <time>2010-11-14T08:39:51Z</time>
      </trkpt>
      <trkpt lat="47.17245" lon="-1.49773">
        <ele>-65.7130127</ele>
        <time>2010-11-14T08:39:59Z</time>
      </trkpt>
      <trkpt lat="47.17262" lon="-1.49837">
        <ele>-59.4643555</ele>
        <time>2010-11-14T08:40:07Z</time>
      </trkpt>
      <trkpt lat="47.17279" lon="-1.49901">
        <ele>-50.8126221</ele>
        <time>2010-11-14T08:40:15Z</time>
      </trkpt>
      <trkpt lat="47.17299" lon="-1.49967">
        <ele>-49.3706055</ele>
        <time>2010-11-14T08:40:24Z</time>
      </trkpt>
      <trkpt lat="47.17326" lon="-1.50024">
        <ele>-51.7738037</ele>
        <time>2010-11-14T08:40:33Z</time>
      </trkpt>
      <trkpt lat="47.17352" lon="-1.50089">
        <ele>-44.5639648</ele>
        <time>2010-11-14T08:40:42Z</time>
      </trkpt>
      <trkpt lat="47.17378" lon="-1.50148">
        <ele>-42.6413574</ele>
        <time>2010-11-14T08:40:50Z</time>
      </trkpt>
      <trkpt lat="47.17403" lon="-1.50202">
        <ele>-42.6413574</ele>
        <time>2010-11-14T08:40:58Z</time>
      </trkpt>
      <trkpt lat="47.17427" lon="-1.50263">
        <ele>-38.7960205</ele>
        <time>2010-11-14T08:41:07Z</time>
      </trkpt>
      <trkpt lat="47.17446" lon="-1.50334">
        <ele>-29.1828613</ele>
        <time>2010-11-14T08:41:16Z</time>
      </trkpt>
      <trkpt lat="47.17467" lon="-1.50393">
        <ele>-17.6470947</ele>
        <time>2010-11-14T08:41:24Z</time>
      </trkpt>
      <trkpt lat="47.17493" lon="-1.50448">
        <ele>-13.8017578</ele>
        <time>2010-11-14T08:41:32Z</time>
      </trkpt>
      <trkpt lat="47.17521" lon="-1.505">
        <ele>-12.8404541</ele>
        <time>2010-11-14T08:41:40Z</time>
      </trkpt>
      <trkpt lat="47.17552" lon="-1.50549">
        <ele>-15.7243652</ele>
        <time>2010-11-14T08:41:48Z</time>
      </trkpt>
      <trkpt lat="47.17586" lon="-1.50602">
        <ele>-18.1278076</ele>
        <time>2010-11-14T08:41:57Z</time>
      </trkpt>
      <trkpt lat="47.17621" lon="-1.50649">
        <ele>-23.8956299</ele>
        <time>2010-11-14T08:42:05Z</time>
      </trkpt>
      <trkpt lat="47.17652" lon="-1.50704">
        <ele>-21.4923096</ele>
        <time>2010-11-14T08:42:16Z</time>
      </trkpt>
      <trkpt lat="47.17637" lon="-1.50766">
        <ele>-15.7243652</ele>
        <time>2010-11-14T08:42:27Z</time>
      </trkpt>
      <trkpt lat="47.17664" lon="-1.50824">
        <ele>-14.7630615</ele>
        <time>2010-11-14T08:42:37Z</time>
      </trkpt>
      <trkpt lat="47.17707" lon="-1.50807">
        <ele>-10.9178467</ele>
        <time>2010-11-14T08:42:47Z</time>
      </trkpt>
      <trkpt lat="47.17749" lon="-1.50847">
        <ele>5.4245605</ele>
        <time>2010-11-14T08:42:56Z</time>
      </trkpt>
      <trkpt lat="47.17788" lon="-1.50892">
        <ele>5.9052734</ele>
        <time>2010-11-14T08:43:05Z</time>
      </trkpt>
      <trkpt lat="47.17828" lon="-1.50934">
        <ele>5.9052734</ele>
        <time>2010-11-14T08:43:14Z</time>
      </trkpt>
      <trkpt lat="47.17868" lon="-1.50981">
        <ele>5.4245605</ele>
        <time>2010-11-14T08:43:23Z</time>
      </trkpt>
      <trkpt lat="47.17904" lon="-1.51032">
        <ele>6.3858643</ele>
        <time>2010-11-14T08:43:32Z</time>
      </trkpt>
      <trkpt lat="47.17936" lon="-1.51082">
        <ele>4.9438477</ele>
        <time>2010-11-14T08:43:40Z</time>
      </trkpt>
      <trkpt lat="47.17974" lon="-1.51125">
        <ele>4.4632568</ele>
        <time>2010-11-14T08:43:49Z</time>
      </trkpt>
      <trkpt lat="47.18018" lon="-1.51152">
        <ele>5.4245605</ele>
        <time>2010-11-14T08:43:58Z</time>
      </trkpt>
      <trkpt lat="47.18055" lon="-1.51181">
        <ele>6.8664551</ele>
        <time>2010-11-14T08:44:13Z</time>
      </trkpt>
      <trkpt lat="47.18059" lon="-1.51256">
        <ele>6.3858643</ele>
        <time>2010-11-14T08:44:23Z</time>
      </trkpt>
      <trkpt lat="47.18068" lon="-1.51328">
        <ele>5.9052734</ele>
        <time>2010-11-14T08:44:32Z</time>
      </trkpt>
      <trkpt lat="47.18089" lon="-1.51391">
        <ele>5.4245605</ele>
        <time>2010-11-14T08:44:41Z</time>
      </trkpt>
      <trkpt lat="47.18111" lon="-1.51455">
        <ele>4.4632568</ele>
        <time>2010-11-14T08:44:50Z</time>
      </trkpt>
      <trkpt lat="47.18127" lon="-1.51524">
        <ele>3.982666</ele>
        <time>2010-11-14T08:44:59Z</time>
      </trkpt>
      <trkpt lat="47.18137" lon="-1.51593">
        <ele>3.5019531</ele>
        <time>2010-11-14T08:45:08Z</time>
      </trkpt>
      <trkpt lat="47.18144" lon="-1.51657">
        <ele>2.5406494</ele>
        <time>2010-11-14T08:45:16Z</time>
      </trkpt>
      <trkpt lat="47.18152" lon="-1.51726">
        <ele>3.982666</ele>
        <time>2010-11-14T08:45:25Z</time>
      </trkpt>
      <trkpt lat="47.18133" lon="-1.51782">
        <ele>5.9052734</ele>
        <time>2010-11-14T08:45:35Z</time>
      </trkpt>
      <trkpt lat="47.18118" lon="-1.51845">
        <ele>3.0212402</ele>
        <time>2010-11-14T08:45:46Z</time>
      </trkpt>
      <trkpt lat="47.18159" lon="-1.51879">
        <ele>3.5019531</ele>
        <time>2010-11-14T08:45:56Z</time>
      </trkpt>
      <trkpt lat="47.18205" lon="-1.51913">
        <ele>8.7891846</ele>
        <time>2010-11-14T08:46:06Z</time>
      </trkpt>
      <trkpt lat="47.1823" lon="-1.51976">
        <ele>12.1538086</ele>
        <time>2010-11-14T08:46:15Z</time>
      </trkpt>
      <trkpt lat="47.18255" lon="-1.5204">
        <ele>8.3085938</ele>
        <time>2010-11-14T08:46:24Z</time>
      </trkpt>
      <trkpt lat="47.18273" lon="-1.52109">
        <ele>3.5019531</ele>
        <time>2010-11-14T08:46:33Z</time>
      </trkpt>
      <trkpt lat="47.18286" lon="-1.52177">
        <ele>-0.8240967</ele>
        <time>2010-11-14T08:46:42Z</time>
      </trkpt>
      <trkpt lat="47.18303" lon="-1.52249">
        <ele>-0.8240967</ele>
        <time>2010-11-14T08:46:56Z</time>
      </trkpt>
      <trkpt lat="47.18299" lon="-1.52318">
        <ele>-2.2659912</ele>
        <time>2010-11-14T08:47:11Z</time>
      </trkpt>
      <trkpt lat="47.18308" lon="-1.52382">
        <ele>-0.3433838</ele>
        <time>2010-11-14T08:47:20Z</time>
      </trkpt>
      <trkpt lat="47.18323" lon="-1.5245">
        <ele>-2.7467041</ele>
        <time>2010-11-14T08:47:29Z</time>
      </trkpt>
      <trkpt lat="47.18322" lon="-1.52519">
        <ele>-4.6693115</ele>
        <time>2010-11-14T08:47:39Z</time>
      </trkpt>
      <trkpt lat="47.18357" lon="-1.52574">
        <ele>0.618042</ele>
        <time>2010-11-14T08:47:49Z</time>
      </trkpt>
      <trkpt lat="47.18366" lon="-1.52642">
        <ele>5.9052734</ele>
        <time>2010-11-14T08:48:02Z</time>
      </trkpt>
      <trkpt lat="47.18376" lon="-1.52708">
        <ele>5.9052734</ele>
        <time>2010-11-14T08:48:13Z</time>
      </trkpt>
      <trkpt lat="47.18387" lon="-1.52777">
        <ele>4.9438477</ele>
        <time>2010-11-14T08:48:22Z</time>
      </trkpt>
      <trkpt lat="47.18409" lon="-1.52841">
        <ele>3.982666</ele>
        <time>2010-11-14T08:48:30Z</time>
      </trkpt>
      <trkpt lat="47.18429" lon="-1.52904">
        <ele>4.4632568</ele>
        <time>2010-11-14T08:48:40Z</time>
      </trkpt>
      <trkpt lat="47.18401" lon="-1.52956">
        <ele>3.982666</ele>
        <time>2010-11-14T08:48:52Z</time>
      </trkpt>
      <trkpt lat="47.18366" lon="-1.53002">
        <ele>1.0986328</ele>
        <time>2010-11-14T08:49:01Z</time>
      </trkpt>
      <trkpt lat="47.1835" lon="-1.53053">
        <ele>1.0986328</ele>
        <time>2010-11-14T08:49:20Z</time>
      </trkpt>
      <trkpt lat="47.18355" lon="-1.53089">
        <ele>6.3858643</ele>
        <time>2010-11-14T08:49:41Z</time>
      </trkpt>
      <trkpt lat="47.18313" lon="-1.53125">
        <ele>7.347168</ele>
        <time>2010-11-14T08:49:52Z</time>
      </trkpt>
      <trkpt lat="47.18273" lon="-1.5316">
        <ele>6.8664551</ele>
        <time>2010-11-14T08:50:03Z</time>
      </trkpt>
      <trkpt lat="47.18254" lon="-1.53197">
        <ele>4.9438477</ele>
        <time>2010-11-14T08:50:16Z</time>
      </trkpt>
      <trkpt lat="47.18295" lon="-1.53169">
        <ele>2.0600586</ele>
        <time>2010-11-14T08:50:28Z</time>
      </trkpt>
      <trkpt lat="47.18327" lon="-1.53222">
        <ele>1.5793457</ele>
        <time>2010-11-14T08:50:40Z</time>
      </trkpt>
      <trkpt lat="47.18359" lon="-1.53273">
        <ele>2.5406494</ele>
        <time>2010-11-14T08:50:49Z</time>
      </trkpt>
      <trkpt lat="47.18395" lon="-1.53317">
        <ele>2.0600586</ele>
        <time>2010-11-14T08:50:57Z</time>
      </trkpt>
      <trkpt lat="47.18435" lon="-1.53365">
        <ele>1.0986328</ele>
        <time>2010-11-14T08:51:06Z</time>
      </trkpt>
      <trkpt lat="47.18475" lon="-1.53409">
        <ele>0.618042</ele>
        <time>2010-11-14T08:51:15Z</time>
      </trkpt>
      <trkpt lat="47.18513" lon="-1.53453">
        <ele>1.0986328</ele>
        <time>2010-11-14T08:51:25Z</time>
      </trkpt>
      <trkpt lat="47.18555" lon="-1.53493">
        <ele>2.0600586</ele>
        <time>2010-11-14T08:51:34Z</time>
      </trkpt>
      <trkpt lat="47.18601" lon="-1.5353">
        <ele>3.982666</ele>
        <time>2010-11-14T08:51:43Z</time>
      </trkpt>
      <trkpt lat="47.18644" lon="-1.53563">
        <ele>4.4632568</ele>
        <time>2010-11-14T08:51:52Z</time>
      </trkpt>
      <trkpt lat="47.18695" lon="-1.53578">
        <ele>5.4245605</ele>
        <time>2010-11-14T08:52:01Z</time>
      </trkpt>
      <trkpt lat="47.18746" lon="-1.53593">
        <ele>3.5019531</ele>
        <time>2010-11-14T08:52:10Z</time>
      </trkpt>
      <trkpt lat="47.18797" lon="-1.53607">
        <ele>1.5793457</ele>
        <time>2010-11-14T08:52:19Z</time>
      </trkpt>
      <trkpt lat="47.18849" lon="-1.53625">
        <ele>0.618042</ele>
        <time>2010-11-14T08:52:28Z</time>
      </trkpt>
      <trkpt lat="47.18895" lon="-1.53653">
        <ele>1.5793457</ele>
        <time>2010-11-14T08:52:36Z</time>
      </trkpt>
      <trkpt lat="47.18938" lon="-1.53694">
        <ele>1.5793457</ele>
        <time>2010-11-14T08:52:45Z</time>
      </trkpt>
      <trkpt lat="47.18983" lon="-1.53729">
        <ele>4.4632568</ele>
        <time>2010-11-14T08:52:54Z</time>
      </trkpt>
      <trkpt lat="47.19023" lon="-1.53773">
        <ele>7.8278809</ele>
        <time>2010-11-14T08:53:03Z</time>
      </trkpt>
      <trkpt lat="47.1906" lon="-1.53819">
        <ele>8.3085938</ele>
        <time>2010-11-14T08:53:12Z</time>
      </trkpt>
      <trkpt lat="47.19101" lon="-1.53865">
        <ele>7.8278809</ele>
        <time>2010-11-14T08:53:21Z</time>
      </trkpt>
      <trkpt lat="47.19138" lon="-1.53911">
        <ele>4.4632568</ele>
        <time>2010-11-14T08:53:31Z</time>
      </trkpt>
      <trkpt lat="47.19171" lon="-1.53962">
        <ele>3.0212402</ele>
        <time>2010-11-14T08:53:40Z</time>
      </trkpt>
      <trkpt lat="47.19204" lon="-1.54021">
        <ele>2.0600586</ele>
        <time>2010-11-14T08:53:49Z</time>
      </trkpt>
      <trkpt lat="47.19234" lon="-1.5408">
        <ele>2.5406494</ele>
        <time>2010-11-14T08:53:59Z</time>
      </trkpt>
      <trkpt lat="47.19262" lon="-1.54141">
        <ele>5.4245605</ele>
        <time>2010-11-14T08:54:09Z</time>
      </trkpt>
      <trkpt lat="47.19295" lon="-1.54196">
        <ele>5.4245605</ele>
        <time>2010-11-14T08:54:18Z</time>
      </trkpt>
      <trkpt lat="47.19325" lon="-1.54251">
        <ele>5.9052734</ele>
        <time>2010-11-14T08:54:26Z</time>
      </trkpt>
      <trkpt lat="47.19325" lon="-1.54299">
        <ele>5.4245605</ele>
        <time>2010-11-14T08:54:37Z</time>
      </trkpt>
      <trkpt lat="47.19284" lon="-1.54329">
        <ele>5.4245605</ele>
        <time>2010-11-14T08:54:45Z</time>
      </trkpt>
      <trkpt lat="47.19245" lon="-1.54368">
        <ele>3.5019531</ele>
        <time>2010-11-14T08:54:54Z</time>
      </trkpt>
      <trkpt lat="47.19198" lon="-1.54373">
        <ele>4.4632568</ele>
        <time>2010-11-14T08:55:04Z</time>
      </trkpt>
      <trkpt lat="47.19182" lon="-1.54428">
        <ele>5.9052734</ele>
        <time>2010-11-14T08:55:19Z</time>
      </trkpt>
      <trkpt lat="47.19186" lon="-1.54497">
        <ele>7.347168</ele>
        <time>2010-11-14T08:55:30Z</time>
      </trkpt>
      <trkpt lat="47.19201" lon="-1.54562">
        <ele>7.347168</ele>
        <time>2010-11-14T08:55:42Z</time>
      </trkpt>
      <trkpt lat="47.19195" lon="-1.54623">
        <ele>8.7891846</ele>
        <time>2010-11-14T08:55:55Z</time>
      </trkpt>
      <trkpt lat="47.19153" lon="-1.54649">
        <ele>11.6732178</ele>
        <time>2010-11-14T08:56:06Z</time>
      </trkpt>
      <trkpt lat="47.19107" lon="-1.54674">
        <ele>14.076416</ele>
        <time>2010-11-14T08:56:18Z</time>
      </trkpt>
      <trkpt lat="47.19069" lon="-1.54707">
        <ele>16.4797363</ele>
        <time>2010-11-14T08:56:31Z</time>
      </trkpt>
      <trkpt lat="47.19023" lon="-1.54735">
        <ele>15.9990234</ele>
        <time>2010-11-14T08:56:44Z</time>
      </trkpt>
      <trkpt lat="47.18981" lon="-1.54744">
        <ele>23.2089844</ele>
        <time>2010-11-14T09:00:40Z</time>
      </trkpt>
      <trkpt lat="47.19017" lon="-1.54732">
        <ele>22.2475586</ele>
        <time>2010-11-14T09:01:01Z</time>
      </trkpt>
      <trkpt lat="47.1906" lon="-1.547">
        <ele>21.286377</ele>
        <time>2010-11-14T09:01:14Z</time>
      </trkpt>
      <trkpt lat="47.19105" lon="-1.54669">
        <ele>20.3249512</ele>
        <time>2010-11-14T09:01:25Z</time>
      </trkpt>
      <trkpt lat="47.19153" lon="-1.54641">
        <ele>19.3637695</ele>
        <time>2010-11-14T09:01:34Z</time>
      </trkpt>
      <trkpt lat="47.19199" lon="-1.54614">
        <ele>19.8443604</ele>
        <time>2010-11-14T09:01:44Z</time>
      </trkpt>
      <trkpt lat="47.19231" lon="-1.54657">
        <ele>19.3637695</ele>
        <time>2010-11-14T09:01:54Z</time>
      </trkpt>
      <trkpt lat="47.19244" lon="-1.54718">
        <ele>15.0377197</ele>
        <time>2010-11-14T09:02:09Z</time>
      </trkpt>
      <trkpt lat="47.19234" lon="-1.54771">
        <ele>13.5958252</ele>
        <time>2010-11-14T09:02:25Z</time>
      </trkpt>
      <trkpt lat="47.19201" lon="-1.54817">
        <ele>14.076416</ele>
        <time>2010-11-14T09:02:35Z</time>
      </trkpt>
      <trkpt lat="47.19181" lon="-1.54877">
        <ele>14.5570068</ele>
        <time>2010-11-14T09:02:44Z</time>
      </trkpt>
      <trkpt lat="47.19191" lon="-1.54936">
        <ele>14.076416</ele>
        <time>2010-11-14T09:02:56Z</time>
      </trkpt>
      <trkpt lat="47.19158" lon="-1.54991">
        <ele>12.6343994</ele>
        <time>2010-11-14T09:03:05Z</time>
      </trkpt>
      <trkpt lat="47.1913" lon="-1.55044">
        <ele>13.5958252</ele>
        <time>2010-11-14T09:03:15Z</time>
      </trkpt>
      <trkpt lat="47.19098" lon="-1.55091">
        <ele>15.5184326</ele>
        <time>2010-11-14T09:03:27Z</time>
      </trkpt>
      <trkpt lat="47.19124" lon="-1.55086">
        <ele>15.9990234</ele>
        <time>2010-11-14T09:03:43Z</time>
      </trkpt>
      <trkpt lat="47.19164" lon="-1.55055">
        <ele>13.1151123</ele>
        <time>2010-11-14T09:03:56Z</time>
      </trkpt>
      <trkpt lat="47.19209" lon="-1.55027">
        <ele>10.711792</ele>
        <time>2010-11-14T09:04:05Z</time>
      </trkpt>
      <trkpt lat="47.19254" lon="-1.55017">
        <ele>8.7891846</ele>
        <time>2010-11-14T09:04:15Z</time>
      </trkpt>
      <trkpt lat="47.19297" lon="-1.55003">
        <ele>7.8278809</ele>
        <time>2010-11-14T09:04:23Z</time>
      </trkpt>
      <trkpt lat="47.19298" lon="-1.55065">
        <ele>7.8278809</ele>
        <time>2010-11-14T09:04:30Z</time>
      </trkpt>
      <trkpt lat="47.19286" lon="-1.55131">
        <ele>7.347168</ele>
        <time>2010-11-14T09:04:37Z</time>
      </trkpt>
      <trkpt lat="47.19261" lon="-1.5519">
        <ele>9.2698975</ele>
        <time>2010-11-14T09:04:46Z</time>
      </trkpt>
      <trkpt lat="47.19254" lon="-1.55254">
        <ele>10.711792</ele>
        <time>2010-11-14T09:04:58Z</time>
      </trkpt>
      <trkpt lat="47.19243" lon="-1.55325">
        <ele>9.7506104</ele>
        <time>2010-11-14T09:05:08Z</time>
      </trkpt>
      <trkpt lat="47.19231" lon="-1.5539">
        <ele>8.7891846</ele>
        <time>2010-11-14T09:05:20Z</time>
      </trkpt>
      <trkpt lat="47.19207" lon="-1.55445">
        <ele>8.3085938</ele>
        <time>2010-11-14T09:05:32Z</time>
      </trkpt>
      <trkpt lat="47.19211" lon="-1.55515">
        <ele>6.8664551</ele>
        <time>2010-11-14T09:05:41Z</time>
      </trkpt>
      <trkpt lat="47.19205" lon="-1.55581">
        <ele>4.4632568</ele>
        <time>2010-11-14T09:05:48Z</time>
      </trkpt>
      <trkpt lat="47.19203" lon="-1.55652">
        <ele>2.5406494</ele>
        <time>2010-11-14T09:05:57Z</time>
      </trkpt>
      <trkpt lat="47.19203" lon="-1.55721">
        <ele>2.5406494</ele>
        <time>2010-11-14T09:06:06Z</time>
      </trkpt>
      <trkpt lat="47.19207" lon="-1.55786">
        <ele>5.9052734</ele>
        <time>2010-11-14T09:06:15Z</time>
      </trkpt>
      <trkpt lat="47.19209" lon="-1.55859">
        <ele>5.4245605</ele>
        <time>2010-11-14T09:06:24Z</time>
      </trkpt>
      <trkpt lat="47.19217" lon="-1.55933">
        <ele>4.4632568</ele>
        <time>2010-11-14T09:06:32Z</time>
      </trkpt>
      <trkpt lat="47.19223" lon="-1.56006">
        <ele>4.9438477</ele>
        <time>2010-11-14T09:06:40Z</time>
      </trkpt>
      <trkpt lat="47.19229" lon="-1.56074">
        <ele>5.4245605</ele>
        <time>2010-11-14T09:06:48Z</time>
      </trkpt>
      <trkpt lat="47.19233" lon="-1.56145">
        <ele>6.8664551</ele>
        <time>2010-11-14T09:06:58Z</time>
      </trkpt>
      <trkpt lat="47.1922" lon="-1.5621">
        <ele>5.9052734</ele>
        <time>2010-11-14T09:07:09Z</time>
      </trkpt>
      <trkpt lat="47.19213" lon="-1.56277">
        <ele>6.8664551</ele>
        <time>2010-11-14T09:07:18Z</time>
      </trkpt>
      <trkpt lat="47.19213" lon="-1.56342">
        <ele>7.347168</ele>
        <time>2010-11-14T09:07:26Z</time>
      </trkpt>
      <trkpt lat="47.19228" lon="-1.5641">
        <ele>6.8664551</ele>
        <time>2010-11-14T09:07:34Z</time>
      </trkpt>
      <trkpt lat="47.19232" lon="-1.56479">
        <ele>5.9052734</ele>
        <time>2010-11-14T09:07:43Z</time>
      </trkpt>
      <trkpt lat="47.19225" lon="-1.56545">
        <ele>5.9052734</ele>
        <time>2010-11-14T09:07:51Z</time>
      </trkpt>
      <trkpt lat="47.19228" lon="-1.56613">
        <ele>4.9438477</ele>
        <time>2010-11-14T09:08:03Z</time>
      </trkpt>
      <trkpt lat="47.19223" lon="-1.56684">
        <ele>5.9052734</ele>
        <time>2010-11-14T09:08:14Z</time>
      </trkpt>
      <trkpt lat="47.19216" lon="-1.56757">
        <ele>5.9052734</ele>
        <time>2010-11-14T09:08:23Z</time>
      </trkpt>
      <trkpt lat="47.19212" lon="-1.56828">
        <ele>5.4245605</ele>
        <time>2010-11-14T09:08:32Z</time>
      </trkpt>
      <trkpt lat="47.19235" lon="-1.56865">
        <ele>6.3858643</ele>
        <time>2010-11-14T09:08:45Z</time>
      </trkpt>
      <trkpt lat="47.19265" lon="-1.56896">
        <ele>7.347168</ele>
        <time>2010-11-14T09:08:55Z</time>
      </trkpt>
      <trkpt lat="47.19262" lon="-1.56965">
        <ele>8.3085938</ele>
        <time>2010-11-14T09:09:06Z</time>
      </trkpt>
      <trkpt lat="47.19252" lon="-1.57025">
        <ele>8.3085938</ele>
        <time>2010-11-14T09:09:21Z</time>
      </trkpt>
      <trkpt lat="47.1925" lon="-1.57085">
        <ele>8.3085938</ele>
        <time>2010-11-14T09:09:33Z</time>
      </trkpt>
      <trkpt lat="47.19232" lon="-1.57146">
        <ele>9.7506104</ele>
        <time>2010-11-14T09:09:45Z</time>
      </trkpt>
      <trkpt lat="47.19232" lon="-1.57209">
        <ele>6.8664551</ele>
        <time>2010-11-14T09:09:54Z</time>
      </trkpt>
      <trkpt lat="47.19202" lon="-1.57256">
        <ele>2.0600586</ele>
        <time>2010-11-14T09:10:11Z</time>
      </trkpt>
      <trkpt lat="47.19152" lon="-1.57251">
        <ele>6.8664551</ele>
        <time>2010-11-14T09:10:25Z</time>
      </trkpt>
      <trkpt lat="47.19126" lon="-1.57313">
        <ele>10.711792</ele>
        <time>2010-11-14T09:10:34Z</time>
      </trkpt>
      <trkpt lat="47.19109" lon="-1.57381">
        <ele>5.4245605</ele>
        <time>2010-11-14T09:10:43Z</time>
      </trkpt>
      <trkpt lat="47.19082" lon="-1.57443">
        <ele>5.9052734</ele>
        <time>2010-11-14T09:10:52Z</time>
      </trkpt>
      <trkpt lat="47.19052" lon="-1.57504">
        <ele>11.1925049</ele>
        <time>2010-11-14T09:11:05Z</time>
      </trkpt>
      <trkpt lat="47.19003" lon="-1.57503">
        <ele>16.4797363</ele>
        <time>2010-11-14T09:11:23Z</time>
      </trkpt>
      <trkpt lat="47.18958" lon="-1.5748">
        <ele>20.8056641</ele>
        <time>2010-11-14T09:11:45Z</time>
      </trkpt>
      <trkpt lat="47.18898" lon="-1.57465">
        <ele>21.7669678</ele>
        <time>2010-11-14T09:14:18Z</time>
      </trkpt>
      <trkpt lat="47.1888" lon="-1.57502">
        <ele>17.4411621</ele>
        <time>2010-11-14T09:14:33Z</time>
      </trkpt>
      <trkpt lat="47.18847" lon="-1.57524">
        <ele>15.0377197</ele>
        <time>2010-11-14T09:14:55Z</time>
      </trkpt>
      <trkpt lat="47.18801" lon="-1.575">
        <ele>13.5958252</ele>
        <time>2010-11-14T09:15:08Z</time>
      </trkpt>
      <trkpt lat="47.18765" lon="-1.57459">
        <ele>14.5570068</ele>
        <time>2010-11-14T09:15:21Z</time>
      </trkpt>
      <trkpt lat="47.18728" lon="-1.57446">
        <ele>16.4797363</ele>
        <time>2010-11-14T09:15:35Z</time>
      </trkpt>
      <trkpt lat="47.18683" lon="-1.57469">
        <ele>16.9604492</ele>
        <time>2010-11-14T09:15:45Z</time>
      </trkpt>
      <trkpt lat="47.18645" lon="-1.57509">
        <ele>17.9217529</ele>
        <time>2010-11-14T09:15:56Z</time>
      </trkpt>
      <trkpt lat="47.18624" lon="-1.57567">
        <ele>20.3249512</ele>
        <time>2010-11-14T09:16:07Z</time>
      </trkpt>
      <trkpt lat="47.18627" lon="-1.57635">
        <ele>21.7669678</ele>
        <time>2010-11-14T09:16:20Z</time>
      </trkpt>
      <trkpt lat="47.18674" lon="-1.57626">
        <ele>23.2089844</ele>
        <time>2010-11-14T09:16:33Z</time>
      </trkpt>
      <trkpt lat="47.18719" lon="-1.57623">
        <ele>24.651001</ele>
        <time>2010-11-14T09:16:43Z</time>
      </trkpt>
      <trkpt lat="47.18768" lon="-1.57628">
        <ele>23.6895752</ele>
        <time>2010-11-14T09:16:52Z</time>
      </trkpt>
      <trkpt lat="47.18791" lon="-1.57653">
        <ele>19.8443604</ele>
        <time>2010-11-14T09:17:12Z</time>
      </trkpt>
      <trkpt lat="47.18837" lon="-1.57673">
        <ele>19.3637695</ele>
        <time>2010-11-14T09:17:29Z</time>
      </trkpt>
      <trkpt lat="47.18884" lon="-1.57694">
        <ele>18.8830566</ele>
        <time>2010-11-14T09:17:39Z</time>
      </trkpt>
      <trkpt lat="47.18929" lon="-1.57721">
        <ele>16.4797363</ele>
        <time>2010-11-14T09:17:48Z</time>
      </trkpt>
      <trkpt lat="47.18936" lon="-1.57782">
        <ele>13.5958252</ele>
        <time>2010-11-14T09:17:59Z</time>
      </trkpt>
      <trkpt lat="47.18909" lon="-1.5783">
        <ele>14.5570068</ele>
        <time>2010-11-14T09:18:17Z</time>
      </trkpt>
      <trkpt lat="47.189" lon="-1.57893">
        <ele>16.9604492</ele>
        <time>2010-11-14T09:18:35Z</time>
      </trkpt>
      <trkpt lat="47.18916" lon="-1.57947">
        <ele>16.9604492</ele>
        <time>2010-11-14T09:18:57Z</time>
      </trkpt>
      <trkpt lat="47.18914" lon="-1.58022">
        <ele>15.9990234</ele>
        <time>2010-11-14T09:19:08Z</time>
      </trkpt>
      <trkpt lat="47.18909" lon="-1.58098">
        <ele>14.076416</ele>
        <time>2010-11-14T09:19:21Z</time>
      </trkpt>
      <trkpt lat="47.18889" lon="-1.58162">
        <ele>13.1151123</ele>
        <time>2010-11-14T09:19:33Z</time>
      </trkpt>
      <trkpt lat="47.18868" lon="-1.58224">
        <ele>14.076416</ele>
        <time>2010-11-14T09:19:45Z</time>
      </trkpt>
      <trkpt lat="47.18849" lon="-1.58287">
        <ele>13.1151123</ele>
        <time>2010-11-14T09:19:56Z</time>
      </trkpt>
      <trkpt lat="47.18836" lon="-1.58353">
        <ele>10.711792</ele>
        <time>2010-11-14T09:20:07Z</time>
      </trkpt>
      <trkpt lat="47.18825" lon="-1.58423">
        <ele>1.5793457</ele>
        <time>2010-11-14T09:20:19Z</time>
      </trkpt>
      <trkpt lat="47.18797" lon="-1.58481">
        <ele>-9.4758301</ele>
        <time>2010-11-14T09:20:34Z</time>
      </trkpt>
      <trkpt lat="47.18787" lon="-1.58548">
        <ele>-9.4758301</ele>
        <time>2010-11-14T09:20:47Z</time>
      </trkpt>
      <trkpt lat="47.18793" lon="-1.58619">
        <ele>-2.7467041</ele>
        <time>2010-11-14T09:20:58Z</time>
      </trkpt>
      <trkpt lat="47.18778" lon="-1.58687">
        <ele>1.0986328</ele>
        <time>2010-11-14T09:21:10Z</time>
      </trkpt>
      <trkpt lat="47.18747" lon="-1.58734">
        <ele>3.982666</ele>
        <time>2010-11-14T09:21:23Z</time>
      </trkpt>
      <trkpt lat="47.18719" lon="-1.58759">
        <ele>4.4632568</ele>
        <time>2010-11-14T09:21:34Z</time>
      </trkpt>
      <trkpt lat="47.18701" lon="-1.58819">
        <ele>4.9438477</ele>
        <time>2010-11-14T09:21:43Z</time>
      </trkpt>
      <trkpt lat="47.18693" lon="-1.58888">
        <ele>6.8664551</ele>
        <time>2010-11-14T09:21:53Z</time>
      </trkpt>
      <trkpt lat="47.18691" lon="-1.58955">
        <ele>8.3085938</ele>
        <time>2010-11-14T09:22:03Z</time>
      </trkpt>
      <trkpt lat="47.18696" lon="-1.59026">
        <ele>9.2698975</ele>
        <time>2010-11-14T09:22:14Z</time>
      </trkpt>
      <trkpt lat="47.18699" lon="-1.59095">
        <ele>8.3085938</ele>
        <time>2010-11-14T09:22:24Z</time>
      </trkpt>
      <trkpt lat="47.18699" lon="-1.59163">
        <ele>7.347168</ele>
        <time>2010-11-14T09:22:34Z</time>
      </trkpt>
      <trkpt lat="47.18696" lon="-1.59231">
        <ele>6.3858643</ele>
        <time>2010-11-14T09:22:44Z</time>
      </trkpt>
      <trkpt lat="47.18694" lon="-1.59298">
        <ele>4.4632568</ele>
        <time>2010-11-14T09:22:54Z</time>
      </trkpt>
      <trkpt lat="47.18683" lon="-1.59364">
        <ele>3.5019531</ele>
        <time>2010-11-14T09:23:04Z</time>
      </trkpt>
      <trkpt lat="47.1868" lon="-1.59434">
        <ele>3.982666</ele>
        <time>2010-11-14T09:23:14Z</time>
      </trkpt>
      <trkpt lat="47.18682" lon="-1.59503">
        <ele>3.5019531</ele>
        <time>2010-11-14T09:23:24Z</time>
      </trkpt>
      <trkpt lat="47.18672" lon="-1.59567">
        <ele>3.982666</ele>
        <time>2010-11-14T09:23:33Z</time>
      </trkpt>
      <trkpt lat="47.18658" lon="-1.59638">
        <ele>4.4632568</ele>
        <time>2010-11-14T09:23:43Z</time>
      </trkpt>
      <trkpt lat="47.18643" lon="-1.59704">
        <ele>5.4245605</ele>
        <time>2010-11-14T09:23:53Z</time>
      </trkpt>
      <trkpt lat="47.1866" lon="-1.59744">
        <ele>7.347168</ele>
        <time>2010-11-14T09:24:09Z</time>
      </trkpt>
      <trkpt lat="47.1869" lon="-1.59772">
        <ele>9.2698975</ele>
        <time>2010-11-14T09:24:27Z</time>
      </trkpt>
      <trkpt lat="47.18691" lon="-1.59843">
        <ele>9.2698975</ele>
        <time>2010-11-14T09:24:37Z</time>
      </trkpt>
      <trkpt lat="47.18678" lon="-1.59908">
        <ele>8.3085938</ele>
        <time>2010-11-14T09:24:47Z</time>
      </trkpt>
      <trkpt lat="47.18657" lon="-1.59968">
        <ele>7.347168</ele>
        <time>2010-11-14T09:24:57Z</time>
      </trkpt>
      <trkpt lat="47.18635" lon="-1.6003">
        <ele>6.8664551</ele>
        <time>2010-11-14T09:25:08Z</time>
      </trkpt>
      <trkpt lat="47.18612" lon="-1.60092">
        <ele>6.3858643</ele>
        <time>2010-11-14T09:25:19Z</time>
      </trkpt>
      <trkpt lat="47.18588" lon="-1.60156">
        <ele>4.9438477</ele>
        <time>2010-11-14T09:25:30Z</time>
      </trkpt>
      <trkpt lat="47.18566" lon="-1.60219">
        <ele>5.9052734</ele>
        <time>2010-11-14T09:25:41Z</time>
      </trkpt>
      <trkpt lat="47.18542" lon="-1.60282">
        <ele>6.3858643</ele>
        <time>2010-11-14T09:25:52Z</time>
      </trkpt>
      <trkpt lat="47.1852" lon="-1.60342">
        <ele>5.9052734</ele>
        <time>2010-11-14T09:26:02Z</time>
      </trkpt>
      <trkpt lat="47.185" lon="-1.60404">
        <ele>5.4245605</ele>
        <time>2010-11-14T09:26:12Z</time>
      </trkpt>
      <trkpt lat="47.1848" lon="-1.6047">
        <ele>4.9438477</ele>
        <time>2010-11-14T09:26:23Z</time>
      </trkpt>
      <trkpt lat="47.18464" lon="-1.60536">
        <ele>5.4245605</ele>
        <time>2010-11-14T09:26:34Z</time>
      </trkpt>
      <trkpt lat="47.1845" lon="-1.60599">
        <ele>5.9052734</ele>
        <time>2010-11-14T09:26:44Z</time>
      </trkpt>
      <trkpt lat="47.18439" lon="-1.60666">
        <ele>5.9052734</ele>
        <time>2010-11-14T09:26:54Z</time>
      </trkpt>
      <trkpt lat="47.18429" lon="-1.60737">
        <ele>5.4245605</ele>
        <time>2010-11-14T09:27:04Z</time>
      </trkpt>
      <trkpt lat="47.18423" lon="-1.60809">
        <ele>5.4245605</ele>
        <time>2010-11-14T09:27:14Z</time>
      </trkpt>
      <trkpt lat="47.18419" lon="-1.6088">
        <ele>5.9052734</ele>
        <time>2010-11-14T09:27:24Z</time>
      </trkpt>
      <trkpt lat="47.18418" lon="-1.60948">
        <ele>6.3858643</ele>
        <time>2010-11-14T09:27:34Z</time>
      </trkpt>
      <trkpt lat="47.18419" lon="-1.61019">
        <ele>6.3858643</ele>
        <time>2010-11-14T09:27:44Z</time>
      </trkpt>
      <trkpt lat="47.18422" lon="-1.61085">
        <ele>5.9052734</ele>
        <time>2010-11-14T09:27:53Z</time>
      </trkpt>
      <trkpt lat="47.18426" lon="-1.61153">
        <ele>5.9052734</ele>
        <time>2010-11-14T09:28:02Z</time>
      </trkpt>
      <trkpt lat="47.1843" lon="-1.61221">
        <ele>5.9052734</ele>
        <time>2010-11-14T09:28:11Z</time>
      </trkpt>
      <trkpt lat="47.18435" lon="-1.61292">
        <ele>5.4245605</ele>
        <time>2010-11-14T09:28:20Z</time>
      </trkpt>
      <trkpt lat="47.18439" lon="-1.61363">
        <ele>5.4245605</ele>
        <time>2010-11-14T09:28:29Z</time>
      </trkpt>
      <trkpt lat="47.18444" lon="-1.6143">
        <ele>4.4632568</ele>
        <time>2010-11-14T09:28:38Z</time>
      </trkpt>
      <trkpt lat="47.18449" lon="-1.615">
        <ele>5.9052734</ele>
        <time>2010-11-14T09:28:47Z</time>
      </trkpt>
      <trkpt lat="47.18453" lon="-1.61571">
        <ele>5.9052734</ele>
        <time>2010-11-14T09:28:56Z</time>
      </trkpt>
      <trkpt lat="47.18457" lon="-1.61645">
        <ele>6.3858643</ele>
        <time>2010-11-14T09:29:05Z</time>
      </trkpt>
      <trkpt lat="47.18461" lon="-1.61712">
        <ele>5.4245605</ele>
        <time>2010-11-14T09:29:13Z</time>
      </trkpt>
      <trkpt lat="47.18466" lon="-1.61781">
        <ele>5.4245605</ele>
        <time>2010-11-14T09:29:22Z</time>
      </trkpt>
      <trkpt lat="47.18469" lon="-1.61843">
        <ele>5.9052734</ele>
        <time>2010-11-14T09:30:06Z</time>
      </trkpt>
      <trkpt lat="47.18473" lon="-1.61909">
        <ele>3.982666</ele>
        <time>2010-11-14T09:30:16Z</time>
      </trkpt>
      <trkpt lat="47.18477" lon="-1.61977">
        <ele>3.982666</ele>
        <time>2010-11-14T09:30:25Z</time>
      </trkpt>
      <trkpt lat="47.18481" lon="-1.6205">
        <ele>3.982666</ele>
        <time>2010-11-14T09:30:35Z</time>
      </trkpt>
      <trkpt lat="47.18485" lon="-1.62118">
        <ele>4.9438477</ele>
        <time>2010-11-14T09:30:44Z</time>
      </trkpt>
      <trkpt lat="47.18487" lon="-1.62184">
        <ele>4.4632568</ele>
        <time>2010-11-14T09:30:53Z</time>
      </trkpt>
      <trkpt lat="47.18487" lon="-1.62251">
        <ele>5.4245605</ele>
        <time>2010-11-14T09:31:02Z</time>
      </trkpt>
      <trkpt lat="47.18488" lon="-1.62318">
        <ele>4.9438477</ele>
        <time>2010-11-14T09:31:11Z</time>
      </trkpt>
      <trkpt lat="47.18482" lon="-1.6239">
        <ele>4.4632568</ele>
        <time>2010-11-14T09:31:22Z</time>
      </trkpt>
      <trkpt lat="47.18479" lon="-1.62457">
        <ele>4.4632568</ele>
        <time>2010-11-14T09:31:32Z</time>
      </trkpt>
      <trkpt lat="47.18476" lon="-1.62526">
        <ele>5.4245605</ele>
        <time>2010-11-14T09:31:42Z</time>
      </trkpt>
      <trkpt lat="47.18473" lon="-1.62597">
        <ele>5.9052734</ele>
        <time>2010-11-14T09:31:52Z</time>
      </trkpt>
      <trkpt lat="47.18468" lon="-1.62664">
        <ele>4.4632568</ele>
        <time>2010-11-14T09:32:01Z</time>
      </trkpt>
      <trkpt lat="47.18461" lon="-1.62735">
        <ele>5.4245605</ele>
        <time>2010-11-14T09:32:10Z</time>
      </trkpt>
      <trkpt lat="47.18452" lon="-1.62804">
        <ele>5.4245605</ele>
        <time>2010-11-14T09:32:19Z</time>
      </trkpt>
      <trkpt lat="47.18449" lon="-1.62875">
        <ele>4.4632568</ele>
        <time>2010-11-14T09:32:28Z</time>
      </trkpt>
      <trkpt lat="47.18454" lon="-1.62948">
        <ele>4.9438477</ele>
        <time>2010-11-14T09:32:37Z</time>
      </trkpt>
      <trkpt lat="47.18473" lon="-1.63011">
        <ele>4.9438477</ele>
        <time>2010-11-14T09:32:46Z</time>
      </trkpt>
      <trkpt lat="47.18506" lon="-1.63062">
        <ele>3.982666</ele>
        <time>2010-11-14T09:32:55Z</time>
      </trkpt>
      <trkpt lat="47.18531" lon="-1.63111">
        <ele>3.5019531</ele>
        <time>2010-11-14T09:33:05Z</time>
      </trkpt>
      <trkpt lat="47.18553" lon="-1.63166">
        <ele>1.0986328</ele>
        <time>2010-11-14T09:33:17Z</time>
      </trkpt>
      <trkpt lat="47.18556" lon="-1.63228">
        <ele>3.0212402</ele>
        <time>2010-11-14T09:33:30Z</time>
      </trkpt>
      <trkpt lat="47.1859" lon="-1.63277">
        <ele>3.5019531</ele>
        <time>2010-11-14T09:33:43Z</time>
      </trkpt>
      <trkpt lat="47.18618" lon="-1.6333">
        <ele>3.5019531</ele>
        <time>2010-11-14T09:33:54Z</time>
      </trkpt>
      <trkpt lat="47.18637" lon="-1.63391">
        <ele>3.0212402</ele>
        <time>2010-11-14T09:34:06Z</time>
      </trkpt>
      <trkpt lat="47.18595" lon="-1.6342">
        <ele>2.0600586</ele>
        <time>2010-11-14T09:34:17Z</time>
      </trkpt>
      <trkpt lat="47.18562" lon="-1.63458">
        <ele>3.0212402</ele>
        <time>2010-11-14T09:34:31Z</time>
      </trkpt>
      <trkpt lat="47.18536" lon="-1.63522">
        <ele>3.0212402</ele>
        <time>2010-11-14T09:34:40Z</time>
      </trkpt>
      <trkpt lat="47.1849" lon="-1.63534">
        <ele>3.982666</ele>
        <time>2010-11-14T09:34:50Z</time>
      </trkpt>
      <trkpt lat="47.18443" lon="-1.63514">
        <ele>3.5019531</ele>
        <time>2010-11-14T09:34:59Z</time>
      </trkpt>
      <trkpt lat="47.18401" lon="-1.63484">
        <ele>3.5019531</ele>
        <time>2010-11-14T09:35:08Z</time>
      </trkpt>
      <trkpt lat="47.18357" lon="-1.63453">
        <ele>3.5019531</ele>
        <time>2010-11-14T09:35:17Z</time>
      </trkpt>
      <trkpt lat="47.18315" lon="-1.63424">
        <ele>3.5019531</ele>
        <time>2010-11-14T09:35:26Z</time>
      </trkpt>
      <trkpt lat="47.18271" lon="-1.63393">
        <ele>2.5406494</ele>
        <time>2010-11-14T09:35:35Z</time>
      </trkpt>
      <trkpt lat="47.18225" lon="-1.63361">
        <ele>2.0600586</ele>
        <time>2010-11-14T09:35:44Z</time>
      </trkpt>
      <trkpt lat="47.18182" lon="-1.63332">
        <ele>2.5406494</ele>
        <time>2010-11-14T09:35:52Z</time>
      </trkpt>
      <trkpt lat="47.18138" lon="-1.63302">
        <ele>3.0212402</ele>
        <time>2010-11-14T09:36:01Z</time>
      </trkpt>
      <trkpt lat="47.18101" lon="-1.63319">
        <ele>3.0212402</ele>
        <time>2010-11-14T09:36:21Z</time>
      </trkpt>
      <trkpt lat="47.18092" lon="-1.63265">
        <ele>4.4632568</ele>
        <time>2010-11-14T09:36:35Z</time>
      </trkpt>
      <trkpt lat="47.18067" lon="-1.63206">
        <ele>6.8664551</ele>
        <time>2010-11-14T09:36:47Z</time>
      </trkpt>
      <trkpt lat="47.18061" lon="-1.63144">
        <ele>9.7506104</ele>
        <time>2010-11-14T09:36:59Z</time>
      </trkpt>
      <trkpt lat="47.1809" lon="-1.63102">
        <ele>8.7891846</ele>
        <time>2010-11-14T09:37:11Z</time>
      </trkpt>
      <trkpt lat="47.18089" lon="-1.63035">
        <ele>10.2312012</ele>
        <time>2010-11-14T09:37:21Z</time>
      </trkpt>
      <trkpt lat="47.1809" lon="-1.6296">
        <ele>13.1151123</ele>
        <time>2010-11-14T09:37:31Z</time>
      </trkpt>
      <trkpt lat="47.18097" lon="-1.62888">
        <ele>14.5570068</ele>
        <time>2010-11-14T09:37:41Z</time>
      </trkpt>
      <trkpt lat="47.18103" lon="-1.62817">
        <ele>13.5958252</ele>
        <time>2010-11-14T09:37:50Z</time>
      </trkpt>
      <trkpt lat="47.18106" lon="-1.62747">
        <ele>13.5958252</ele>
        <time>2010-11-14T09:37:59Z</time>
      </trkpt>
      <trkpt lat="47.18119" lon="-1.62697">
        <ele>12.1538086</ele>
        <time>2010-11-14T09:38:11Z</time>
      </trkpt>
      <trkpt lat="47.18138" lon="-1.62638">
        <ele>8.7891846</ele>
        <time>2010-11-14T09:38:19Z</time>
      </trkpt>
      <trkpt lat="47.18116" lon="-1.62572">
        <ele>7.347168</ele>
        <time>2010-11-14T09:38:27Z</time>
      </trkpt>
      <trkpt lat="47.18127" lon="-1.62512">
        <ele>6.3858643</ele>
        <time>2010-11-14T09:38:36Z</time>
      </trkpt>
      <trkpt lat="47.1813" lon="-1.6244">
        <ele>6.3858643</ele>
        <time>2010-11-14T09:38:44Z</time>
      </trkpt>
      <trkpt lat="47.18115" lon="-1.62374">
        <ele>5.9052734</ele>
        <time>2010-11-14T09:38:53Z</time>
      </trkpt>
      <trkpt lat="47.18098" lon="-1.62311">
        <ele>4.4632568</ele>
        <time>2010-11-14T09:39:03Z</time>
      </trkpt>
      <trkpt lat="47.18058" lon="-1.62327">
        <ele>6.8664551</ele>
        <time>2010-11-14T09:39:18Z</time>
      </trkpt>
      <trkpt lat="47.18011" lon="-1.62342">
        <ele>12.1538086</ele>
        <time>2010-11-14T09:39:38Z</time>
      </trkpt>
      <trkpt lat="47.17966" lon="-1.62356">
        <ele>16.4797363</ele>
        <time>2010-11-14T09:39:52Z</time>
      </trkpt>
      <trkpt lat="47.17929" lon="-1.62315">
        <ele>23.2089844</ele>
        <time>2010-11-14T09:40:15Z</time>
      </trkpt>
      <trkpt lat="47.17884" lon="-1.62325">
        <ele>27.0543213</ele>
        <time>2010-11-14T09:40:29Z</time>
      </trkpt>
      <trkpt lat="47.17849" lon="-1.62357">
        <ele>28.0155029</ele>
        <time>2010-11-14T09:40:49Z</time>
      </trkpt>
      <trkpt lat="47.17806" lon="-1.62337">
        <ele>28.0155029</ele>
        <time>2010-11-14T09:41:01Z</time>
      </trkpt>
      <trkpt lat="47.1776" lon="-1.62313">
        <ele>26.5736084</ele>
        <time>2010-11-14T09:41:12Z</time>
      </trkpt>
      <trkpt lat="47.17723" lon="-1.62321">
        <ele>26.0928955</ele>
        <time>2010-11-14T09:41:24Z</time>
      </trkpt>
      <trkpt lat="47.17725" lon="-1.62393">
        <ele>26.0928955</ele>
        <time>2010-11-14T09:41:35Z</time>
      </trkpt>
      <trkpt lat="47.17722" lon="-1.6246">
        <ele>25.6123047</ele>
        <time>2010-11-14T09:41:44Z</time>
      </trkpt>
      <trkpt lat="47.17714" lon="-1.6253">
        <ele>23.6895752</ele>
        <time>2010-11-14T09:41:54Z</time>
      </trkpt>
      <trkpt lat="47.17692" lon="-1.62591">
        <ele>20.8056641</ele>
        <time>2010-11-14T09:42:05Z</time>
      </trkpt>
      <trkpt lat="47.17652" lon="-1.62627">
        <ele>18.4023438</ele>
        <time>2010-11-14T09:42:13Z</time>
      </trkpt>
      <trkpt lat="47.17611" lon="-1.62665">
        <ele>16.9604492</ele>
        <time>2010-11-14T09:42:20Z</time>
      </trkpt>
      <trkpt lat="47.17567" lon="-1.62705">
        <ele>14.076416</ele>
        <time>2010-11-14T09:42:27Z</time>
      </trkpt>
      <trkpt lat="47.17525" lon="-1.62744">
        <ele>12.6343994</ele>
        <time>2010-11-14T09:42:34Z</time>
      </trkpt>
      <trkpt lat="47.17484" lon="-1.62781">
        <ele>12.6343994</ele>
        <time>2010-11-14T09:42:42Z</time>
      </trkpt>
      <trkpt lat="47.17443" lon="-1.62771">
        <ele>10.2312012</ele>
        <time>2010-11-14T09:42:53Z</time>
      </trkpt>
      <trkpt lat="47.174" lon="-1.62755">
        <ele>9.2698975</ele>
        <time>2010-11-14T09:43:05Z</time>
      </trkpt>
      <trkpt lat="47.17367" lon="-1.62702">
        <ele>13.1151123</ele>
        <time>2010-11-14T09:43:17Z</time>
      </trkpt>
      <trkpt lat="47.17329" lon="-1.62661">
        <ele>15.9990234</ele>
        <time>2010-11-14T09:43:27Z</time>
      </trkpt>
      <trkpt lat="47.17292" lon="-1.62665">
        <ele>17.9217529</ele>
        <time>2010-11-14T09:43:39Z</time>
      </trkpt>
      <trkpt lat="47.17256" lon="-1.62698">
        <ele>19.8443604</ele>
        <time>2010-11-14T09:43:52Z</time>
      </trkpt>
      <trkpt lat="47.1722" lon="-1.62739">
        <ele>21.7669678</ele>
        <time>2010-11-14T09:44:05Z</time>
      </trkpt>
      <trkpt lat="47.17188" lon="-1.62787">
        <ele>24.1702881</ele>
        <time>2010-11-14T09:44:17Z</time>
      </trkpt>
      <trkpt lat="47.17155" lon="-1.62833">
        <ele>24.651001</ele>
        <time>2010-11-14T09:44:27Z</time>
      </trkpt>
      <trkpt lat="47.17119" lon="-1.62882">
        <ele>27.0543213</ele>
        <time>2010-11-14T09:44:38Z</time>
      </trkpt>
      <trkpt lat="47.17079" lon="-1.62922">
        <ele>27.5349121</ele>
        <time>2010-11-14T09:44:50Z</time>
      </trkpt>
      <trkpt lat="47.17034" lon="-1.6294">
        <ele>27.5349121</ele>
        <time>2010-11-14T09:45:00Z</time>
      </trkpt>
      <trkpt lat="47.16986" lon="-1.62939">
        <ele>27.5349121</ele>
        <time>2010-11-14T09:45:10Z</time>
      </trkpt>
      <trkpt lat="47.16944" lon="-1.62922">
        <ele>26.5736084</ele>
        <time>2010-11-14T09:45:21Z</time>
      </trkpt>
      <trkpt lat="47.16901" lon="-1.62946">
        <ele>26.5736084</ele>
        <time>2010-11-14T09:45:32Z</time>
      </trkpt>
      <trkpt lat="47.16891" lon="-1.63005">
        <ele>26.5736084</ele>
        <time>2010-11-14T09:45:42Z</time>
      </trkpt>
      <trkpt lat="47.16892" lon="-1.63071">
        <ele>28.0155029</ele>
        <time>2010-11-14T09:45:52Z</time>
      </trkpt>
      <trkpt lat="47.16905" lon="-1.63137">
        <ele>28.0155029</ele>
        <time>2010-11-14T09:46:01Z</time>
      </trkpt>
      <trkpt lat="47.1693" lon="-1.63194">
        <ele>28.0155029</ele>
        <time>2010-11-14T09:46:10Z</time>
      </trkpt>
      <trkpt lat="47.16963" lon="-1.6324">
        <ele>28.0155029</ele>
        <time>2010-11-14T09:46:20Z</time>
      </trkpt>
      <trkpt lat="47.16937" lon="-1.63298">
        <ele>27.5349121</ele>
        <time>2010-11-14T09:46:31Z</time>
      </trkpt>
      <trkpt lat="47.16902" lon="-1.63348">
        <ele>27.5349121</ele>
        <time>2010-11-14T09:46:41Z</time>
      </trkpt>
      <trkpt lat="47.16866" lon="-1.6332">
        <ele>27.0543213</ele>
        <time>2010-11-14T09:46:55Z</time>
      </trkpt>
      <trkpt lat="47.16835" lon="-1.63264">
        <ele>28.0155029</ele>
        <time>2010-11-14T09:47:05Z</time>
      </trkpt>
      <trkpt lat="47.16806" lon="-1.6321">
        <ele>27.0543213</ele>
        <time>2010-11-14T09:47:15Z</time>
      </trkpt>
      <trkpt lat="47.16775" lon="-1.63158">
        <ele>25.6123047</ele>
        <time>2010-11-14T09:47:24Z</time>
      </trkpt>
      <trkpt lat="47.16744" lon="-1.63108">
        <ele>24.1702881</ele>
        <time>2010-11-14T09:47:33Z</time>
      </trkpt>
      <trkpt lat="47.16724" lon="-1.63058">
        <ele>23.6895752</ele>
        <time>2010-11-14T09:47:55Z</time>
      </trkpt>
      <trkpt lat="47.16708" lon="-1.63006">
        <ele>22.7282715</ele>
        <time>2010-11-14T09:48:11Z</time>
      </trkpt>
      <trkpt lat="47.16729" lon="-1.6294">
        <ele>22.2475586</ele>
        <time>2010-11-14T09:48:20Z</time>
      </trkpt>
      <trkpt lat="47.16701" lon="-1.62892">
        <ele>24.1702881</ele>
        <time>2010-11-14T09:48:32Z</time>
      </trkpt>
      <trkpt lat="47.16722" lon="-1.62831">
        <ele>22.7282715</ele>
        <time>2010-11-14T09:48:45Z</time>
      </trkpt>
      <trkpt lat="47.16753" lon="-1.62784">
        <ele>21.286377</ele>
        <time>2010-11-14T09:49:10Z</time>
      </trkpt>
      <trkpt lat="47.16785" lon="-1.6273">
        <ele>21.286377</ele>
        <time>2010-11-14T09:49:24Z</time>
      </trkpt>
      <trkpt lat="47.16815" lon="-1.62678">
        <ele>20.3249512</ele>
        <time>2010-11-14T09:49:33Z</time>
      </trkpt>
      <trkpt lat="47.16803" lon="-1.62627">
        <ele>19.8443604</ele>
        <time>2010-11-14T09:49:46Z</time>
      </trkpt>
      <trkpt lat="47.16783" lon="-1.62577">
        <ele>19.3637695</ele>
        <time>2010-11-14T09:49:58Z</time>
      </trkpt>
      <trkpt lat="47.16801" lon="-1.62517">
        <ele>21.286377</ele>
        <time>2010-11-14T09:52:44Z</time>
      </trkpt>
      <trkpt lat="47.16835" lon="-1.6249">
        <ele>22.7282715</ele>
        <time>2010-11-14T09:52:56Z</time>
      </trkpt>
      <trkpt lat="47.16876" lon="-1.62503">
        <ele>22.7282715</ele>
        <time>2010-11-14T09:53:04Z</time>
      </trkpt>
      <trkpt lat="47.16923" lon="-1.6252">
        <ele>21.7669678</ele>
        <time>2010-11-14T09:53:13Z</time>
      </trkpt>
      <trkpt lat="47.16963" lon="-1.62502">
        <ele>21.7669678</ele>
        <time>2010-11-14T09:53:26Z</time>
      </trkpt>
      <trkpt lat="47.1699" lon="-1.62463">
        <ele>24.651001</ele>
        <time>2010-11-14T09:53:37Z</time>
      </trkpt>
      <trkpt lat="47.17034" lon="-1.62439">
        <ele>24.1702881</ele>
        <time>2010-11-14T09:54:00Z</time>
      </trkpt>
      <trkpt lat="47.17079" lon="-1.62414">
        <ele>25.1317139</ele>
        <time>2010-11-14T09:54:14Z</time>
      </trkpt>
      <trkpt lat="47.17103" lon="-1.62359">
        <ele>25.1317139</ele>
        <time>2010-11-14T09:54:28Z</time>
      </trkpt>
      <trkpt lat="47.17076" lon="-1.62302">
        <ele>23.6895752</ele>
        <time>2010-11-14T09:54:39Z</time>
      </trkpt>
      <trkpt lat="47.17083" lon="-1.62236">
        <ele>23.2089844</ele>
        <time>2010-11-14T09:54:50Z</time>
      </trkpt>
      <trkpt lat="47.17127" lon="-1.62218">
        <ele>23.6895752</ele>
        <time>2010-11-14T09:54:59Z</time>
      </trkpt>
      <trkpt lat="47.17175" lon="-1.62193">
        <ele>21.7669678</ele>
        <time>2010-11-14T09:55:09Z</time>
      </trkpt>
      <trkpt lat="47.17221" lon="-1.62174">
        <ele>22.7282715</ele>
        <time>2010-11-14T09:55:19Z</time>
      </trkpt>
      <trkpt lat="47.17248" lon="-1.62135">
        <ele>20.8056641</ele>
        <time>2010-11-14T09:55:31Z</time>
      </trkpt>
      <trkpt lat="47.17288" lon="-1.62118">
        <ele>18.8830566</ele>
        <time>2010-11-14T09:55:42Z</time>
      </trkpt>
      <trkpt lat="47.17337" lon="-1.62104">
        <ele>17.9217529</ele>
        <time>2010-11-14T09:55:51Z</time>
      </trkpt>
      <trkpt lat="47.17383" lon="-1.62102">
        <ele>18.4023438</ele>
        <time>2010-11-14T09:56:01Z</time>
      </trkpt>
      <trkpt lat="47.17429" lon="-1.62101">
        <ele>20.8056641</ele>
        <time>2010-11-14T09:56:11Z</time>
      </trkpt>
      <trkpt lat="47.17478" lon="-1.62116">
        <ele>23.2089844</ele>
        <time>2010-11-14T09:56:23Z</time>
      </trkpt>
      <trkpt lat="47.17524" lon="-1.62116">
        <ele>24.651001</ele>
        <time>2010-11-14T09:56:36Z</time>
      </trkpt>
      <trkpt lat="47.17575" lon="-1.62135">
        <ele>24.651001</ele>
        <time>2010-11-14T09:56:46Z</time>
      </trkpt>
      <trkpt lat="47.17624" lon="-1.62158">
        <ele>22.2475586</ele>
        <time>2010-11-14T09:56:55Z</time>
      </trkpt>
      <trkpt lat="47.17672" lon="-1.62179">
        <ele>23.2089844</ele>
        <time>2010-11-14T09:57:04Z</time>
      </trkpt>
      <trkpt lat="47.17711" lon="-1.62211">
        <ele>26.0928955</ele>
        <time>2010-11-14T09:57:22Z</time>
      </trkpt>
      <trkpt lat="47.17729" lon="-1.62224">
        <ele>28.4962158</ele>
        <time>2010-11-14T09:57:50Z</time>
      </trkpt>
    </trkseg>
  </trk>
</gpx>